M I D A S
Marine Information and Data Acquisition System
Tripno 1667 of the Zeeleeuw from 2009-03-30 06:45:18 to 2009-03-30 15:00:56
Back to CruiseResearch ActivitiesStationsMapUnderway DataData graphs

EquipmentUnitsComment
TimeDGPSUTC
LatitudeDGPSDM.mWGS84
LongitudeDGPSDM.mWGS84
TemperatureSBE03/SBE38deg celciusITS90
ConductivitySBE21S/mITS90
SalinitySBE21 Practical Salinity Units
ChlorophylAChelsea fluorimeterg/lCalibrated in Aceton
Missing or incorrect values are displayed as -999
Sea surface data collected by the RV Zeeleeuw from 2009-03-30 05:57:48 to 2009-03-30 15:07:51
                                                                                    Next 1000 lines
Time Latitude Longitude Temperature Conductivity Salinity ChlorophylA
2009-03-30 05:57:58 51°13.664 2°55.956 -999 0.043339 0.207024 -1.174688
2009-03-30 05:58:03 51°13.664 2°55.956 -999 0.043545 0.208017 -1.174688
2009-03-30 05:58:08 51°13.664 2°55.956 -999 0.043236 0.206531 -1.209513
2009-03-30 05:58:13 51°13.664 2°55.956 -999 0.043236 0.206534 -1.209513
2009-03-30 05:58:18 51°13.665 2°55.955 -999 0.043133 0.206035 -1.209513
2009-03-30 05:58:23 51°13.664 2°55.956 -999 0.043339 0.20703 -1.174688
2009-03-30 05:58:28 51°13.664 2°55.956 -999 0.043339 0.20703 -1.174688
2009-03-30 05:58:33 51°13.664 2°55.956 -999 0.043442 0.20753 -1.174688
2009-03-30 05:58:38 51°13.665 2°55.956 -999 0.043339 0.207033 -1.174688
2009-03-30 05:58:43 51°13.665 2°55.956 -999 0.043339 0.207036 -1.209513
2009-03-30 05:58:48 51°13.665 2°55.956 -999 0.043545 0.208029 -1.209513
2009-03-30 05:58:53 51°13.664 2°55.956 -999 0.043442 0.207533 -1.174688
2009-03-30 05:58:58 51°13.664 2°55.956 -999 0.043442 0.207533 -1.174688
2009-03-30 05:59:03 51°13.664 2°55.956 -999 0.043236 0.206543 -1.209513
2009-03-30 05:59:08 51°13.664 2°55.956 -999 0.043339 0.207039 -1.174688
2009-03-30 05:59:13 51°13.664 2°55.956 -999 0.04303 0.205551 -1.174688
2009-03-30 05:59:18 51°13.664 2°55.956 -999 0.043339 0.207042 -1.174688
2009-03-30 05:59:23 51°13.664 2°55.957 -999 0.043545 0.208035 -1.209513
2009-03-30 05:59:28 51°13.664 2°55.957 -999 0.043545 0.208035 -1.209513
2009-03-30 05:59:33 51°13.664 2°55.957 -999 0.04375 0.209028 -1.209513
2009-03-30 05:59:39 51°13.664 2°55.957 -999 0.043648 0.208535 -1.209513
2009-03-30 05:59:43 51°13.664 2°55.957 -999 0.043236 0.206549 -1.209513
2009-03-30 05:59:48 51°13.664 2°55.957 -999 0.043339 0.207048 -1.209513
2009-03-30 05:59:53 51°13.664 2°55.957 -999 0.043545 0.208041 -1.209513
2009-03-30 05:59:58 51°13.664 2°55.957 -999 0.043545 0.208041 -1.209513
2009-03-30 06:00:03 51°13.664 2°55.957 -999 0.043442 0.207545 -1.174688
2009-03-30 06:00:09 51°13.664 2°55.957 -999 0.043442 0.207548 -1.209513
2009-03-30 06:00:13 51°13.664 2°55.957 -999 0.043648 0.208544 -1.209513
2009-03-30 06:00:17 51°13.664 2°55.957 -999 0.043236 0.206558 -1.174688
2009-03-30 06:00:24 51°13.663 2°55.957 -999 0.043442 0.207551 -1.209513
2009-03-30 06:00:29 51°13.663 2°55.957 -999 0.043442 0.207551 -1.209513
2009-03-30 06:00:34 51°13.663 2°55.957 -999 0.043339 0.207057 -1.174688
2009-03-30 06:00:39 51°13.663 2°55.957 -999 0.04303 0.205569 -1.209513
2009-03-30 06:00:44 51°13.663 2°55.957 -999 0.043339 0.207057 -1.209513
2009-03-30 06:00:49 51°13.663 2°55.957 -999 0.043442 0.207557 -1.209513
2009-03-30 06:00:54 51°13.663 2°55.957 -999 0.042927 0.205075 -1.209513
2009-03-30 06:00:58 51°13.663 2°55.957 -999 0.042927 0.205075 -1.209513
2009-03-30 06:01:03 51°13.663 2°55.957 -999 0.04303 0.205571 -1.174688
2009-03-30 06:01:08 51°13.663 2°55.957 -999 0.04303 0.205574 -1.174688
2009-03-30 06:01:13 51°13.663 2°55.957 -999 0.042824 0.204585 -1.209513
2009-03-30 06:01:18 51°13.664 2°55.957 -999 0.043236 0.20657 -1.209513
2009-03-30 06:01:24 51°13.664 2°55.957 -999 0.043648 0.208559 -1.174688
2009-03-30 06:01:28 51°13.664 2°55.957 -999 0.043648 0.208559 -1.174688
2009-03-30 06:01:33 51°13.664 2°55.957 -999 0.043545 0.208062 -1.209513
2009-03-30 06:01:38 51°13.664 2°55.957 -999 0.04303 0.20558 -1.174688
2009-03-30 06:01:44 51°13.664 2°55.957 -999 0.042824 0.204591 -1.209513
2009-03-30 06:01:48 51°13.664 2°55.957 -999 0.042927 0.205087 -1.174688
2009-03-30 06:01:53 51°13.664 2°55.957 -999 0.043442 0.207569 -1.174688
2009-03-30 06:01:58 51°13.664 2°55.958 -999 0.043442 0.207569 -1.174688
2009-03-30 06:02:03 51°13.664 2°55.957 -999 0.043339 0.207072 -1.209513
2009-03-30 06:02:08 51°13.664 2°55.957 -999 0.04303 0.205586 -1.209513
2009-03-30 06:02:13 51°13.664 2°55.958 -999 0.04303 0.205586 -1.174688
2009-03-30 06:02:18 51°13.664 2°55.958 -999 0.043236 0.206582 -1.209513
2009-03-30 06:02:24 51°13.664 2°55.958 -999 0.043133 0.206085 -1.209513
2009-03-30 06:02:29 51°13.664 2°55.957 -999 0.043133 0.206085 -1.209513
2009-03-30 06:02:33 51°13.664 2°55.957 -999 0.043339 0.207078 -1.209513
2009-03-30 06:02:38 51°13.663 2°55.957 -999 0.043442 0.207577 -1.174688
2009-03-30 06:02:43 51°13.663 2°55.957 -999 0.043236 0.206585 -1.209513
2009-03-30 06:02:48 51°13.663 2°55.957 -999 0.043133 0.206091 -1.209513
2009-03-30 06:02:53 51°13.663 2°55.957 -999 0.043133 0.206091 -1.209513
2009-03-30 06:02:58 51°13.663 2°55.958 -999 0.043133 0.206091 -1.209513
2009-03-30 06:03:03 51°13.664 2°55.958 -999 0.043133 0.206088 -1.174688
2009-03-30 06:03:09 51°13.664 2°55.958 -999 0.043339 0.207087 -1.209513
2009-03-30 06:03:14 51°13.664 2°55.958 -999 0.043339 0.207087 -1.174688
2009-03-30 06:03:19 51°13.664 2°55.958 -999 0.043236 0.206591 -1.174688
2009-03-30 06:03:23 51°13.664 2°55.958 -999 0.042927 0.205102 -1.209513
2009-03-30 06:03:29 51°13.664 2°55.958 -999 0.042927 0.205102 -1.209513
2009-03-30 06:03:33 51°13.664 2°55.958 -999 0.042927 0.205105 -1.209513
2009-03-30 06:03:37 51°13.663 2°55.958 -999 0.04375 0.209076 -1.209513
2009-03-30 06:03:43 51°13.663 2°55.958 -999 0.043648 0.208583 -1.174688
2009-03-30 06:03:48 51°13.663 2°55.958 -999 0.043545 0.208086 -1.174688
2009-03-30 06:03:54 51°13.663 2°55.958 -999 0.043339 0.207093 -1.209513
2009-03-30 06:03:58 51°13.663 2°55.958 -999 0.043339 0.207093 -1.209513
2009-03-30 06:04:04 51°13.663 2°55.958 -999 0.043442 0.207592 -1.174688
2009-03-30 06:04:08 51°13.663 2°55.958 -999 0.043339 0.207096 -1.209513
2009-03-30 06:04:13 51°13.663 2°55.958 -999 0.043339 0.207096 -1.174688
2009-03-30 06:04:18 51°13.663 2°55.958 -999 0.043133 0.206103 -1.174688
2009-03-30 06:04:24 51°13.663 2°55.957 -999 0.04303 0.20561 -1.209513
2009-03-30 06:04:28 51°13.662 2°55.957 -999 0.04303 0.20561 -1.209513
2009-03-30 06:04:33 51°13.663 2°55.957 -999 0.042824 0.204618 -1.174688
2009-03-30 06:04:38 51°13.664 2°55.958 -999 0.042721 0.204121 -1.174688
2009-03-30 06:04:44 51°13.665 2°55.958 -999 0.042824 0.20462 -1.174688
2009-03-30 06:04:48 51°13.665 2°55.958 -999 0.043236 0.206605 -1.209513
2009-03-30 06:04:53 51°13.665 2°55.958 -999 0.04303 0.205616 -1.209513
2009-03-30 06:04:58 51°13.664 2°55.957 -999 0.04303 0.205616 -1.209513
2009-03-30 06:05:04 51°13.664 2°55.958 -999 0.043133 0.206112 -1.209513
2009-03-30 06:05:09 51°13.664 2°55.958 -999 0.04303 0.205616 -1.174688
2009-03-30 06:05:13 51°13.664 2°55.958 -999 0.04303 0.205619 -1.209513
2009-03-30 06:05:18 51°13.664 2°55.958 -999 0.04303 0.205619 -1.209513
2009-03-30 06:05:23 51°13.662 2°55.957 -999 0.042927 0.205122 -1.174688
2009-03-30 06:05:29 51°13.662 2°55.957 -999 0.042927 0.205122 -1.174688
2009-03-30 06:05:34 51°13.662 2°55.957 -999 0.042721 0.20413 -1.209513
2009-03-30 06:05:39 51°13.662 2°55.957 -999 0.043133 0.206118 -1.174688
2009-03-30 06:05:43 51°13.662 2°55.957 -999 0.043442 0.207607 -1.174688
2009-03-30 06:05:49 51°13.662 2°55.957 -999 0.043236 0.206617 -1.209513
2009-03-30 06:05:54 51°13.662 2°55.957 -999 0.043236 0.206617 -1.209513
2009-03-30 06:05:58 51°13.661 2°55.957 -999 0.043236 0.206617 -1.209513
2009-03-30 06:06:03 51°13.662 2°55.957 -999 0.043236 0.206617 -1.209513
2009-03-30 06:06:09 51°13.662 2°55.957 -999 0.043339 0.207117 -1.174688
2009-03-30 06:06:14 51°13.662 2°55.957 -999 0.043545 0.20811 -1.209513
2009-03-30 06:06:18 51°13.662 2°55.957 -999 0.043648 0.20861 -1.209513
2009-03-30 06:06:24 51°13.662 2°55.957 -999 0.043236 0.206623 -1.209513
2009-03-30 06:06:29 51°13.662 2°55.957 -999 0.043236 0.206623 -1.209513
2009-03-30 06:06:34 51°13.662 2°55.957 -999 0.043339 0.20712 -1.174688
2009-03-30 06:06:38 51°13.663 2°55.957 -999 0.043545 0.208116 -1.209513
2009-03-30 06:06:44 51°13.663 2°55.957 -999 0.043339 0.207123 -1.174688
2009-03-30 06:06:48 51°13.663 2°55.957 -999 0.043339 0.207123 -1.174688
2009-03-30 06:06:54 51°13.664 2°55.957 -999 0.043339 0.207123 -1.174688
2009-03-30 06:06:58 51°13.664 2°55.957 -999 0.043339 0.207123 -1.174688
2009-03-30 06:07:04 51°13.664 2°55.957 -999 0.042824 0.204641 -1.174688
2009-03-30 06:07:08 51°13.664 2°55.957 -999 0.042927 0.20514 -1.174688
2009-03-30 06:07:13 51°13.664 2°55.957 -999 0.043339 0.207126 -1.209513
2009-03-30 06:07:18 51°13.664 2°55.957 -999 0.043339 0.207129 -1.174688
2009-03-30 06:07:24 51°13.664 2°55.957 -999 0.043339 0.207129 -1.174688
2009-03-30 06:07:28 51°13.664 2°55.957 -999 0.043339 0.207129 -1.174688
2009-03-30 06:07:33 51°13.664 2°55.957 -999 0.043442 0.207625 -1.174688
2009-03-30 06:07:38 51°13.665 2°55.957 -999 0.04303 0.205642 -1.174688
2009-03-30 06:07:44 51°13.665 2°55.957 -999 0.04303 0.205639 -1.209513
2009-03-30 06:07:49 51°13.665 2°55.957 -999 0.043133 0.206139 -1.209513
2009-03-30 06:07:53 51°13.665 2°55.957 -999 0.04303 0.205642 -1.209513
2009-03-30 06:07:58 51°13.665 2°55.957 -999 0.04303 0.205642 -1.209513
2009-03-30 06:08:03 51°13.665 2°55.957 -999 0.04303 0.205642 -1.174688
2009-03-30 06:08:09 51°13.665 2°55.958 -999 0.043133 0.206142 -1.209513
2009-03-30 06:08:14 51°13.665 2°55.958 -999 0.043133 0.206142 -1.209513
2009-03-30 06:08:19 51°13.665 2°55.958 -999 0.043133 0.206142 -1.174688
2009-03-30 06:08:23 51°13.665 2°55.958 -999 0.043133 0.206145 -1.174688
2009-03-30 06:08:29 51°13.665 2°55.958 -999 0.043133 0.206145 -1.174688
2009-03-30 06:08:34 51°13.665 2°55.958 -999 0.043133 0.206145 -1.174688
2009-03-30 06:08:39 51°13.665 2°55.958 -999 0.043236 0.206641 -1.209513
2009-03-30 06:08:43 51°13.665 2°55.958 -999 0.043236 0.206641 -1.209513
2009-03-30 06:08:49 51°13.665 2°55.958 -999 0.042824 0.204659 -1.209513
2009-03-30 06:08:54 51°13.664 2°55.958 -999 0.042824 0.204659 -1.209513
2009-03-30 06:08:58 51°13.665 2°55.958 -999 0.042824 0.204659 -1.209513
2009-03-30 06:09:04 51°13.665 2°55.958 -999 0.043133 0.206148 -1.209513
2009-03-30 06:09:09 51°13.665 2°55.958 -999 0.042824 0.204662 -1.209513
2009-03-30 06:09:14 51°13.665 2°55.958 -999 0.042824 0.204662 -1.174688
2009-03-30 06:09:18 51°13.665 2°55.958 -999 0.043133 0.206151 -1.209513
2009-03-30 06:09:24 51°13.665 2°55.958 -999 0.042927 0.205161 -1.209513
2009-03-30 06:09:28 51°13.665 2°55.958 -999 0.042927 0.205161 -1.209513
2009-03-30 06:09:33 51°13.665 2°55.958 -999 0.042824 0.204665 -1.209513
2009-03-30 06:09:38 51°13.664 2°55.959 -999 0.042927 0.205161 -1.209513
2009-03-30 06:09:44 51°13.664 2°55.958 -999 0.04303 0.20566 -1.209513
2009-03-30 06:09:48 51°13.664 2°55.958 -999 0.04303 0.20566 -1.209513
2009-03-30 06:09:53 51°13.664 2°55.958 -999 0.042824 0.20467 -1.209513
2009-03-30 06:09:58 51°13.664 2°55.959 -999 0.042824 0.20467 -1.209513
2009-03-30 06:10:04 51°13.664 2°55.958 -999 0.042824 0.20467 -1.209513
2009-03-30 06:10:08 51°13.664 2°55.958 -999 0.042927 0.205167 -1.209513
2009-03-30 06:10:13 51°13.664 2°55.958 -999 0.04303 0.205666 -1.209513
2009-03-30 06:10:18 51°13.664 2°55.958 -999 0.042927 0.20517 -1.209513
2009-03-30 06:10:24 51°13.664 2°55.958 -999 0.04303 0.205666 -1.209513
2009-03-30 06:10:29 51°13.664 2°55.958 -999 0.04303 0.205666 -1.209513
2009-03-30 06:10:33 51°13.664 2°55.958 -999 0.042927 0.205173 -1.209513
2009-03-30 06:10:39 51°13.664 2°55.958 -999 0.042927 0.205173 -1.174688
2009-03-30 06:10:44 51°13.664 2°55.958 -999 0.04303 0.205669 -1.174688
2009-03-30 06:10:49 51°13.664 2°55.958 -999 0.042927 0.205176 -1.174688
2009-03-30 06:10:54 51°13.664 2°55.958 -999 0.043133 0.206168 -1.174688
2009-03-30 06:10:59 51°13.664 2°55.958 -999 0.043133 0.206168 -1.174688
2009-03-30 06:11:03 51°13.664 2°55.958 -999 0.042927 0.205176 -1.174688
2009-03-30 06:11:09 51°13.664 2°55.958 -999 0.04303 0.205675 -1.209513
2009-03-30 06:11:14 51°13.664 2°55.958 -999 0.042824 0.204682 -1.209513
2009-03-30 06:11:18 51°13.664 2°55.958 -999 0.042927 0.205179 -1.174688
2009-03-30 06:11:23 51°13.664 2°55.958 -999 0.042927 0.205181 -1.174688
2009-03-30 06:11:29 51°13.664 2°55.958 -999 0.042927 0.205181 -1.174688
2009-03-30 06:11:34 51°13.664 2°55.958 -999 0.042927 0.205184 -1.209513
2009-03-30 06:11:38 51°13.664 2°55.958 -999 0.043133 0.206174 -1.209513
2009-03-30 06:11:43 51°13.664 2°55.958 -999 0.043236 0.206674 -1.174688
2009-03-30 06:11:48 51°13.664 2°55.958 -999 0.043133 0.20618 -1.174688
2009-03-30 06:11:53 51°13.664 2°55.958 -999 0.043236 0.206677 -1.209513
2009-03-30 06:11:58 51°13.664 2°55.958 -999 0.043236 0.206677 -1.209513
2009-03-30 06:12:03 51°13.664 2°55.958 -999 0.043133 0.20618 -1.174688
2009-03-30 06:12:08 51°13.664 2°55.958 -999 0.04303 0.205687 -1.174688
2009-03-30 06:12:13 51°13.664 2°55.958 -999 0.042824 0.204697 -1.209513
2009-03-30 06:12:18 51°13.664 2°55.958 -999 0.042618 0.203704 -1.174688
2009-03-30 06:12:23 51°13.664 2°55.958 -999 0.042618 0.203704 -1.174688
2009-03-30 06:12:28 51°13.664 2°55.958 -999 0.042618 0.203704 -1.174688
2009-03-30 06:12:33 51°13.664 2°55.958 -999 0.042927 0.205193 -1.174688
2009-03-30 06:12:38 51°13.664 2°55.958 -999 0.042618 0.203707 -1.209513
2009-03-30 06:12:43 51°13.664 2°55.958 -999 0.042927 0.205199 -1.174688
2009-03-30 06:12:48 51°13.664 2°55.958 -999 0.042927 0.205199 -1.209513
2009-03-30 06:12:53 51°13.664 2°55.958 -999 0.043339 0.207185 -1.174688
2009-03-30 06:12:58 51°13.664 2°55.958 -999 0.043339 0.207185 -1.174688
2009-03-30 06:13:03 51°13.664 2°55.958 -999 0.042824 0.204706 -1.209513
2009-03-30 06:13:08 51°13.664 2°55.958 -999 0.042618 0.203713 -1.174688
2009-03-30 06:13:13 51°13.664 2°55.958 -999 0.042824 0.204709 -1.209513
2009-03-30 06:13:18 51°13.664 2°55.958 -999 0.042413 0.202724 -1.209513
2009-03-30 06:13:23 51°13.664 2°55.958 -999 0.042413 0.202724 -1.174688
2009-03-30 06:13:28 51°13.664 2°55.958 -999 0.042413 0.202724 -1.174688
2009-03-30 06:13:33 51°13.664 2°55.958 -999 0.042413 0.202727 -1.174688
2009-03-30 06:13:38 51°13.664 2°55.958 -999 0.04231 0.202231 -1.174688
2009-03-30 06:13:43 51°13.664 2°55.958 -999 0.042516 0.203223 -1.209513
2009-03-30 06:13:48 51°13.664 2°55.958 -999 0.04231 0.202234 -1.174688
2009-03-30 06:13:53 51°13.664 2°55.958 -999 0.042516 0.203229 -1.174688
2009-03-30 06:13:58 51°13.664 2°55.958 -999 0.042516 0.203229 -1.174688
2009-03-30 06:14:03 51°13.664 2°55.957 -999 0.042927 0.205214 -1.174688
2009-03-30 06:14:08 51°13.664 2°55.957 -999 0.042516 0.203232 -1.209513
2009-03-30 06:14:13 51°13.664 2°55.957 -999 0.04231 0.202239 -1.174688
2009-03-30 06:14:18 51°13.664 2°55.958 -999 0.04231 0.202239 -1.174688
2009-03-30 06:14:23 51°13.664 2°55.958 -999 0.04231 0.202242 -1.209513
2009-03-30 06:14:28 51°13.664 2°55.958 -999 0.04231 0.202242 -1.209513
2009-03-30 06:14:33 51°13.664 2°55.958 -999 0.042104 0.20125 -1.209513
2009-03-30 06:14:38 51°13.664 2°55.958 -999 0.042207 0.201749 -1.209513
2009-03-30 06:14:43 51°13.664 2°55.958 -999 0.042104 0.201253 -1.174688
2009-03-30 06:14:48 51°13.664 2°55.958 -999 0.042104 0.201256 -1.174688
2009-03-30 06:14:53 51°13.664 2°55.958 -999 0.04231 0.202248 -1.209513
2009-03-30 06:14:58 51°13.664 2°55.958 -999 0.04231 0.202248 -1.209513
2009-03-30 06:15:03 51°13.664 2°55.958 -999 0.042413 0.202747 -1.209513
2009-03-30 06:15:08 51°13.664 2°55.958 -999 0.042104 0.201262 -1.174688
2009-03-30 06:15:13 51°13.664 2°55.958 -999 0.04231 0.202254 -1.209513
2009-03-30 06:15:18 51°13.664 2°55.957 -999 0.042104 0.201265 -1.174688
2009-03-30 06:15:23 51°13.664 2°55.958 -999 0.042207 0.201764 -1.209513
2009-03-30 06:15:28 51°13.664 2°55.958 -999 0.042207 0.201764 -1.209513
2009-03-30 06:15:33 51°13.664 2°55.958 -999 0.042104 0.201268 -1.209513
2009-03-30 06:15:38 51°13.664 2°55.958 -999 0.041898 0.200276 -1.209513
2009-03-30 06:15:43 51°13.664 2°55.957 -999 0.041898 0.200279 -1.209513
2009-03-30 06:15:48 51°13.664 2°55.958 -999 0.042001 0.200777 -1.209513
2009-03-30 06:15:53 51°13.664 2°55.957 -999 0.042001 0.200777 -1.174688
2009-03-30 06:15:58 51°13.664 2°55.958 -999 0.042001 0.200777 -1.174688
2009-03-30 06:16:03 51°13.664 2°55.958 -999 0.042001 0.200777 -1.209513
2009-03-30 06:16:08 51°13.664 2°55.958 -999 0.04231 0.202271 -1.209513
2009-03-30 06:16:13 51°13.664 2°55.958 -999 0.042104 0.201279 -1.209513
2009-03-30 06:16:18 51°13.664 2°55.958 -999 0.041898 0.200287 -1.174688
2009-03-30 06:16:23 51°13.664 2°55.958 -999 0.042207 0.201778 -1.174688
2009-03-30 06:16:28 51°13.664 2°55.958 -999 0.042207 0.201778 -1.174688
2009-03-30 06:16:33 51°13.664 2°55.958 -999 0.042104 0.201285 -1.209513
2009-03-30 06:16:38 51°13.664 2°55.958 -999 0.042104 0.201285 -1.174688
2009-03-30 06:16:43 51°13.664 2°55.958 -999 0.042207 0.201784 -1.174688
2009-03-30 06:16:48 51°13.664 2°55.958 -999 0.042001 0.200795 -1.174688
2009-03-30 06:16:53 51°13.664 2°55.958 -999 0.041898 0.200299 -1.174688
2009-03-30 06:16:58 51°13.664 2°55.958 -999 0.041898 0.200299 -1.174688
2009-03-30 06:17:03 51°13.664 2°55.957 -999 0.041898 0.200302 -1.174688
2009-03-30 06:17:08 51°13.663 2°55.957 -999 0.041898 0.200305 -1.174688
2009-03-30 06:17:13 51°13.663 2°55.957 -999 0.041795 0.199809 -1.174688
2009-03-30 06:17:18 51°13.664 2°55.957 -999 0.041795 0.199812 -1.209513
2009-03-30 06:17:23 51°13.664 2°55.957 -999 0.042001 0.200803 -1.174688
2009-03-30 06:17:28 51°13.664 2°55.957 -999 0.042001 0.200803 -1.174688
2009-03-30 06:17:33 51°13.664 2°55.957 -999 0.041898 0.20031 -1.174688
2009-03-30 06:17:38 51°13.664 2°55.957 -999 0.041898 0.200313 -1.209513
2009-03-30 06:17:43 51°13.664 2°55.957 -999 0.041795 0.199817 -1.209513
2009-03-30 06:17:48 51°13.664 2°55.957 -999 0.041692 0.199324 -1.174688
2009-03-30 06:17:53 51°13.664 2°55.957 -999 0.041589 0.198831 -1.174688
2009-03-30 06:17:58 51°13.664 2°55.957 -999 0.041589 0.198831 -1.174688
2009-03-30 06:18:03 51°13.664 2°55.957 -999 0.041589 0.198834 -1.174688
2009-03-30 06:18:08 51°13.664 2°55.957 -999 0.041795 0.199826 -1.174688
2009-03-30 06:18:13 51°13.664 2°55.957 -999 0.041692 0.199333 -1.209513
2009-03-30 06:18:18 51°13.664 2°55.957 -999 0.041795 0.199829 -1.209513
2009-03-30 06:18:23 51°13.664 2°55.957 -999 0.041795 0.199832 -1.174688
2009-03-30 06:18:28 51°13.664 2°55.957 -999 0.041795 0.199832 -1.174688
2009-03-30 06:18:33 51°13.664 2°55.957 -999 0.041589 0.198843 -1.209513
2009-03-30 06:18:38 51°13.664 2°55.957 -999 0.041692 0.199341 -1.209513
2009-03-30 06:18:43 51°13.664 2°55.957 -999 0.041795 0.199837 -1.174688
2009-03-30 06:18:48 51°13.664 2°55.957 -999 0.041795 0.19984 -1.174688
2009-03-30 06:18:53 51°13.664 2°55.957 -999 0.041795 0.199843 -1.174688
2009-03-30 06:18:58 51°13.664 2°55.957 -999 0.041795 0.199843 -1.174688
2009-03-30 06:19:03 51°13.664 2°55.957 -999 0.041795 0.199843 -1.174688
2009-03-30 06:19:08 51°13.664 2°55.957 -999 0.041898 0.200342 -1.209513
2009-03-30 06:19:13 51°13.664 2°55.957 -999 0.041795 0.199849 -1.209513
2009-03-30 06:19:18 51°13.664 2°55.957 -999 0.041692 0.199356 -1.209513
2009-03-30 06:19:23 51°13.663 2°55.958 -999 0.041795 0.199852 -1.209513
2009-03-30 06:19:28 51°13.663 2°55.958 -999 0.041795 0.199852 -1.209513
2009-03-30 06:19:33 51°13.663 2°55.958 -999 0.042001 0.200847 -1.209513
2009-03-30 06:19:38 51°13.663 2°55.958 -999 0.041795 0.199857 -1.209513
2009-03-30 06:19:43 51°13.663 2°55.958 -999 0.042001 0.200849 -1.174688
2009-03-30 06:19:48 51°13.663 2°55.958 -999 0.041795 0.19986 -1.209513
2009-03-30 06:19:53 51°13.663 2°55.958 -999 0.041795 0.19986 -1.209513
2009-03-30 06:19:58 51°13.663 2°55.958 -999 0.041795 0.19986 -1.209513
2009-03-30 06:20:03 51°13.663 2°55.958 -999 0.041898 0.200359 -1.174688
2009-03-30 06:20:08 51°13.663 2°55.958 -999 0.041898 0.200362 -1.209513
2009-03-30 06:20:13 51°13.663 2°55.958 -999 0.041898 0.200362 -1.209513
2009-03-30 06:20:18 51°13.663 2°55.958 -999 0.041795 0.199869 -1.174688
2009-03-30 06:20:23 51°13.663 2°55.958 -999 0.041589 0.19888 -1.209513
2009-03-30 06:20:28 51°13.664 2°55.958 -999 0.041589 0.19888 -1.209513
2009-03-30 06:20:33 51°13.664 2°55.959 -999 0.041589 0.198883 -1.174688
2009-03-30 06:20:38 51°13.664 2°55.959 -999 0.041487 0.198387 -1.174688
2009-03-30 06:20:43 51°13.664 2°55.959 -999 0.041487 0.19839 -1.209513
2009-03-30 06:20:48 51°13.664 2°55.959 -999 0.041589 0.198886 -1.209513
2009-03-30 06:20:53 51°13.664 2°55.959 -999 0.041589 0.198888 -1.174688
2009-03-30 06:20:58 51°13.664 2°55.959 -999 0.041589 0.198888 -1.174688
2009-03-30 06:21:03 51°13.664 2°55.959 -999 0.041384 0.1979 -1.209513
2009-03-30 06:21:08 51°13.663 2°55.959 -999 0.041384 0.197902 -1.209513
2009-03-30 06:21:13 51°13.663 2°55.959 -999 0.041795 0.199886 -1.174688
2009-03-30 06:21:18 51°13.663 2°55.959 -999 0.041795 0.199886 -1.174688
2009-03-30 06:21:23 51°13.663 2°55.959 -999 0.041692 0.199393 -1.209513
2009-03-30 06:21:28 51°13.663 2°55.959 -999 0.041692 0.199393 -1.209513
2009-03-30 06:21:33 51°13.663 2°55.959 -999 0.041692 0.199396 -1.174688
2009-03-30 06:21:38 51°13.663 2°55.959 -999 0.041589 0.1989 -1.174688
2009-03-30 06:21:43 51°13.663 2°55.959 -999 0.041589 0.198903 -1.174688
2009-03-30 06:21:48 51°13.663 2°55.959 -999 0.041589 0.198906 -1.209513
2009-03-30 06:21:53 51°13.664 2°55.959 -999 0.041795 0.199898 -1.209513
2009-03-30 06:21:58 51°13.663 2°55.959 -999 0.041795 0.199898 -1.209513
2009-03-30 06:22:03 51°13.663 2°55.959 -999 0.041795 0.1999 -1.174688
2009-03-30 06:22:08 51°13.663 2°55.959 -999 0.041692 0.199407 -1.174688
2009-03-30 06:22:13 51°13.663 2°55.959 -999 0.041589 0.198911 -1.174688
2009-03-30 06:22:18 51°13.663 2°55.959 -999 0.041692 0.19941 -1.209513
2009-03-30 06:22:23 51°13.663 2°55.959 -999 0.041898 0.200405 -1.174688
2009-03-30 06:22:28 51°13.663 2°55.959 -999 0.041898 0.200405 -1.174688
2009-03-30 06:22:33 51°13.663 2°55.959 -999 0.041795 0.199909 -1.209513
2009-03-30 06:22:38 51°13.664 2°55.959 -999 0.041692 0.199413 -1.209513
2009-03-30 06:22:43 51°13.664 2°55.959 -999 0.041487 0.198424 -1.209513
2009-03-30 06:22:48 51°13.664 2°55.959 -999 0.041589 0.198923 -1.209513
2009-03-30 06:22:53 51°13.664 2°55.959 -999 0.041589 0.198923 -1.209513
2009-03-30 06:22:58 51°13.664 2°55.959 -999 0.041589 0.198923 -1.209513
2009-03-30 06:23:03 51°13.664 2°55.959 -999 0.041487 0.19843 -1.209513
2009-03-30 06:23:08 51°13.664 2°55.959 -999 0.041487 0.198432 -1.209513
2009-03-30 06:23:13 51°13.664 2°55.959 -999 0.041487 0.198432 -1.209513
2009-03-30 06:23:19 51°13.664 2°55.959 -999 0.041692 0.199427 -1.209513
2009-03-30 06:23:24 51°13.664 2°55.959 -999 0.041795 0.199926 -1.209513
2009-03-30 06:23:29 51°13.664 2°55.959 -999 0.041795 0.199926 -1.209513
2009-03-30 06:23:34 51°13.664 2°55.959 -999 0.041795 0.199926 -1.209513
2009-03-30 06:23:39 51°13.664 2°55.959 -999 0.041692 0.199433 -1.174688
2009-03-30 06:23:44 51°13.664 2°55.959 -999 0.041692 0.199433 -1.209513
2009-03-30 06:23:49 51°13.664 2°55.959 -999 0.041589 0.19894 -1.174688
2009-03-30 06:23:54 51°13.664 2°55.959 -999 0.041589 0.19894 -1.174688
2009-03-30 06:23:58 51°13.664 2°55.959 -999 0.041795 0.199935 -1.174688
2009-03-30 06:24:03 51°13.664 2°55.959 -999 0.041795 0.199935 -1.174688
2009-03-30 06:24:08 51°13.664 2°55.959 -999 0.041692 0.199442 -1.174688
2009-03-30 06:24:13 51°13.664 2°55.959 -999 0.041589 0.198948 -1.174688
2009-03-30 06:24:18 51°13.664 2°55.959 -999 0.041589 0.198948 -1.209513
2009-03-30 06:24:23 51°13.664 2°55.959 -999 0.041487 0.198452 -1.209513
2009-03-30 06:24:28 51°13.664 2°55.959 -999 0.041692 0.199447 -1.174688
2009-03-30 06:24:33 51°13.664 2°55.959 -999 0.041692 0.199447 -1.174688
2009-03-30 06:24:38 51°13.664 2°55.959 -999 0.041692 0.199447 -1.209513
2009-03-30 06:24:44 51°13.664 2°55.959 -999 0.041795 0.199943 -1.174688
2009-03-30 06:24:49 51°13.664 2°55.959 -999 0.041898 0.200443 -1.209513
2009-03-30 06:24:54 51°13.664 2°55.959 -999 0.041692 0.199453 -1.209513
2009-03-30 06:24:58 51°13.664 2°55.959 -999 0.041795 0.199949 -1.209513
2009-03-30 06:25:03 51°13.664 2°55.959 -999 0.041795 0.199949 -1.209513
2009-03-30 06:25:07 51°13.664 2°55.959 -999 0.041487 0.198464 -1.209513
2009-03-30 06:25:13 51°13.664 2°55.959 -999 0.041281 0.197475 -1.209513
2009-03-30 06:25:18 51°13.664 2°55.959 -999 0.041487 0.198469 -1.174688
2009-03-30 06:25:23 51°13.664 2°55.959 -999 0.041589 0.198965 -1.209513
2009-03-30 06:25:28 51°13.664 2°55.959 -999 0.041692 0.199462 -1.174688
2009-03-30 06:25:33 51°13.664 2°55.959 -999 0.041692 0.199462 -1.174688
2009-03-30 06:25:38 51°13.664 2°55.959 -999 0.041589 0.198968 -1.209513
2009-03-30 06:25:43 51°13.663 2°55.959 -999 0.041589 0.198968 -1.209513
2009-03-30 06:25:47 51°13.663 2°55.959 -999 0.041589 0.198971 -1.209513
2009-03-30 06:25:52 51°13.663 2°55.959 -999 0.041795 0.199966 -1.174688
2009-03-30 06:25:57 51°13.663 2°55.959 -999 0.042001 0.200962 -1.209513
2009-03-30 06:26:02 51°13.663 2°55.959 -999 0.042001 0.200962 -1.209513
2009-03-30 06:26:07 51°13.663 2°55.959 -999 0.042207 0.201955 -1.209513
2009-03-30 06:26:11 51°13.663 2°55.959 -999 0.041898 0.200469 -1.174688
2009-03-30 06:26:16 51°13.663 2°55.959 -999 0.041589 0.198983 -1.209513
2009-03-30 06:26:21 51°13.663 2°55.959 -999 0.041589 0.198983 -1.209513
2009-03-30 06:26:26 51°13.663 2°55.959 -999 0.041898 0.200474 -1.209513
2009-03-30 06:26:31 51°13.663 2°55.959 -999 0.041898 0.200474 -1.209513
2009-03-30 06:26:36 51°13.664 2°55.959 -999 0.041898 0.200477 -1.209513
2009-03-30 06:26:41 51°13.664 2°55.959 -999 0.042104 0.20147 -1.209513
2009-03-30 06:26:46 51°13.664 2°55.959 -999 0.041898 0.20048 -1.174688
2009-03-30 06:26:51 51°13.664 2°55.959 -999 0.041589 0.198991 -1.209513
2009-03-30 06:26:56 51°13.664 2°55.959 -999 0.041487 0.198498 -1.209513
2009-03-30 06:27:01 51°13.664 2°55.959 -999 0.041487 0.198498 -1.209513
2009-03-30 06:27:05 51°13.664 2°55.959 -999 0.041589 0.198994 -1.174688
2009-03-30 06:27:10 51°13.664 2°55.958 -999 0.041692 0.199493 -1.174688
2009-03-30 06:27:15 51°13.663 2°55.958 -999 0.041692 0.199496 -1.209513
2009-03-30 06:27:20 51°13.663 2°55.958 -999 0.041281 0.197511 -1.174688
2009-03-30 06:27:25 51°13.663 2°55.958 -999 0.041178 0.197018 -1.209513
2009-03-30 06:27:30 51°13.663 2°55.958 -999 0.041178 0.197018 -1.209513
2009-03-30 06:27:35 51°13.663 2°55.958 -999 0.041384 0.198013 -1.174688
2009-03-30 06:27:42 51°13.663 2°55.958 -999 0.041281 0.197517 -1.174688
2009-03-30 06:27:46 51°13.663 2°55.958 -999 0.041384 0.198016 -1.174688
2009-03-30 06:27:51 51°13.663 2°55.958 -999 0.041589 0.199011 -1.174688
2009-03-30 06:27:56 51°13.663 2°55.958 -999 0.041589 0.199014 -1.174688
2009-03-30 06:28:01 51°13.663 2°55.958 -999 0.041589 0.199014 -1.174688
2009-03-30 06:28:06 51°13.663 2°55.958 -999 0.041384 0.198025 -1.209513
2009-03-30 06:28:10 51°13.663 2°55.958 -999 0.041281 0.197528 -1.174688
2009-03-30 06:28:15 51°13.663 2°55.958 -999 0.041178 0.197035 -1.209513
2009-03-30 06:28:20 51°13.663 2°55.958 -999 0.041075 0.196542 -1.209513
2009-03-30 06:28:25 51°13.663 2°55.958 -999 0.041384 0.198033 -1.209513
2009-03-30 06:28:30 51°13.663 2°55.958 -999 0.041384 0.198033 -1.209513
2009-03-30 06:28:35 51°13.663 2°55.958 -999 0.041178 0.197044 -1.209513
2009-03-30 06:28:40 51°13.663 2°55.958 -999 0.041075 0.196551 -1.209513
2009-03-30 06:28:46 51°13.663 2°55.958 -999 0.041281 0.197543 -1.209513
2009-03-30 06:28:51 51°13.663 2°55.958 -999 0.041178 0.197049 -1.209513
2009-03-30 06:28:55 51°13.663 2°55.958 -999 0.041487 0.198541 -1.174688
2009-03-30 06:29:00 51°13.663 2°55.958 -999 0.041487 0.198541 -1.174688
2009-03-30 06:29:05 51°13.663 2°55.958 -999 0.041487 0.198546 -1.209513
2009-03-30 06:29:10 51°13.663 2°55.958 -999 0.041898 0.200535 -1.209513
2009-03-30 06:29:15 51°13.663 2°55.958 -999 0.041589 0.199046 -1.209513
2009-03-30 06:29:20 51°13.664 2°55.958 -999 0.041384 0.198056 -1.174688
2009-03-30 06:29:25 51°13.663 2°55.958 -999 0.041692 0.199548 -1.209513
2009-03-30 06:29:30 51°13.664 2°55.958 -999 0.041692 0.199548 -1.209513
2009-03-30 06:29:35 51°13.664 2°55.958 -999 0.041384 0.198062 -1.209513
2009-03-30 06:29:40 51°13.664 2°55.958 -999 0.041795 0.20005 -1.174688
2009-03-30 06:29:45 51°13.664 2°55.958 -999 0.041589 0.19906 -1.209513
2009-03-30 06:29:50 51°13.664 2°55.958 -999 0.041487 0.198566 -1.209513
2009-03-30 06:29:55 51°13.664 2°55.958 -999 0.041281 0.197577 -1.174688
2009-03-30 06:30:00 51°13.664 2°55.958 -999 0.041281 0.197577 -1.174688
2009-03-30 06:30:05 51°13.664 2°55.958 -999 0.041178 0.197083 -1.174688
2009-03-30 06:30:10 51°13.664 2°55.958 -999 0.041281 0.19758 -1.209513
2009-03-30 06:30:15 51°13.665 2°55.958 -999 0.041281 0.197582 -1.174688
2009-03-30 06:30:20 51°13.665 2°55.959 -999 0.041487 0.198578 -1.174688
2009-03-30 06:30:25 51°13.665 2°55.958 -999 0.041281 0.197588 -1.209513
2009-03-30 06:30:30 51°13.664 2°55.958 -999 0.041281 0.197588 -1.209513
2009-03-30 06:30:35 51°13.664 2°55.958 -999 0.041281 0.197591 -1.174688
2009-03-30 06:30:40 51°13.663 2°55.958 -999 0.041178 0.197095 -1.209513
2009-03-30 06:30:45 51°13.663 2°55.958 -999 0.041281 0.197597 -1.209513
2009-03-30 06:30:50 51°13.663 2°55.957 -999 0.041281 0.197597 -1.209513
2009-03-30 06:30:55 51°13.663 2°55.957 -999 0.041075 0.196607 -1.209513
2009-03-30 06:31:00 51°13.663 2°55.957 -999 0.041075 0.196607 -1.209513
2009-03-30 06:31:05 51°13.662 2°55.957 -999 0.041075 0.19661 -1.209513
2009-03-30 06:31:10 51°13.662 2°55.957 -999 0.040869 0.195621 -1.174688
2009-03-30 06:31:15 51°13.662 2°55.957 -999 0.040766 0.195125 -1.174688
2009-03-30 06:31:19 51°13.662 2°55.958 -999 0.041075 0.196615 -1.209513
2009-03-30 06:31:25 51°13.663 2°55.958 -999 0.041178 0.197114 -1.174688
2009-03-30 06:31:30 51°13.663 2°55.957 -999 0.041178 0.197114 -1.174688
2009-03-30 06:31:35 51°13.663 2°55.958 -999 0.041487 0.198606 -1.209513
2009-03-30 06:31:40 51°13.664 2°55.958 -999 0.041178 0.19712 -1.209513
2009-03-30 06:31:45 51°13.664 2°55.958 -999 0.041075 0.196627 -1.174688
2009-03-30 06:31:50 51°13.664 2°55.958 -999 0.041281 0.197622 -1.174688
2009-03-30 06:31:55 51°13.664 2°55.958 -999 0.041178 0.197129 -1.174688
2009-03-30 06:32:00 51°13.664 2°55.958 -999 0.041178 0.197129 -1.174688
2009-03-30 06:32:05 51°13.664 2°55.958 -999 0.041384 0.198121 -1.209513
2009-03-30 06:32:10 51°13.663 2°55.958 -999 0.041589 0.19912 -1.174688
2009-03-30 06:32:15 51°13.663 2°55.958 -999 0.041487 0.198626 -1.174688
2009-03-30 06:32:19 51°13.663 2°55.958 -999 0.041075 0.196641 -1.174688
2009-03-30 06:32:25 51°13.663 2°55.958 -999 0.041281 0.197636 -1.209513
2009-03-30 06:32:30 51°13.663 2°55.957 -999 0.041281 0.197636 -1.209513
2009-03-30 06:32:35 51°13.663 2°55.957 -999 0.041589 0.199128 -1.209513
2009-03-30 06:32:40 51°13.663 2°55.958 -999 0.041589 0.199131 -1.174688
2009-03-30 06:32:45 51°13.663 2°55.958 -999 0.041075 0.196652 -1.209513
2009-03-30 06:32:50 51°13.664 2°55.958 -999 0.041178 0.197151 -1.174688
2009-03-30 06:32:55 51°13.663 2°55.957 -999 0.041178 0.197154 -1.174688
2009-03-30 06:33:01 51°13.662 2°55.957 -999 0.041178 0.197154 -1.174688
2009-03-30 06:33:05 51°13.662 2°55.957 -999 0.041281 0.197653 -1.209513
2009-03-30 06:33:10 51°13.662 2°55.957 -999 0.041692 0.199642 -1.209513
2009-03-30 06:33:15 51°13.662 2°55.957 -999 0.041384 0.198155 -1.209513
2009-03-30 06:33:20 51°13.662 2°55.957 -999 0.041384 0.198161 -1.174688
2009-03-30 06:33:25 51°13.662 2°55.957 -999 0.041281 0.197665 -1.174688
2009-03-30 06:33:30 51°13.662 2°55.958 -999 0.041281 0.197665 -1.174688
2009-03-30 06:33:35 51°13.662 2°55.958 -999 0.041075 0.196678 -1.174688
2009-03-30 06:33:41 51°13.662 2°55.958 -999 0.041692 0.199657 -1.174688
2009-03-30 06:33:46 51°13.662 2°55.958 -999 0.041178 0.197174 -1.209513
2009-03-30 06:33:52 51°13.662 2°55.958 -999 0.041384 0.198173 -1.209513
2009-03-30 06:33:57 51°13.662 2°55.958 -999 0.041281 0.197679 -1.174688
2009-03-30 06:34:02 51°13.662 2°55.958 -999 0.041281 0.197679 -1.174688
2009-03-30 06:34:07 51°13.662 2°55.958 -999 0.041178 0.197182 -1.209513
2009-03-30 06:34:13 51°13.662 2°55.958 -999 0.041692 0.199668 -1.209513
2009-03-30 06:34:18 51°13.662 2°55.958 -999 0.042104 0.201659 -1.174688
2009-03-30 06:34:22 51°13.663 2°55.958 -999 0.042001 0.201164 -1.209513
2009-03-30 06:34:27 51°13.663 2°55.958 -999 0.041589 0.19918 -1.209513
2009-03-30 06:34:32 51°13.663 2°55.958 -999 0.041589 0.19918 -1.209513
2009-03-30 06:34:37 51°13.663 2°55.958 -999 0.041487 0.198686 -1.174688
2009-03-30 06:34:42 51°13.663 2°55.958 -999 0.041692 0.19968 -1.209513
2009-03-30 06:34:46 51°13.663 2°55.958 -999 0.041692 0.19968 -1.209513
2009-03-30 06:34:51 51°13.663 2°55.958 -999 0.041692 0.199682 -1.209513
2009-03-30 06:34:56 51°13.663 2°55.958 -999 0.042207 0.20217 -1.209513
2009-03-30 06:35:01 51°13.663 2°55.958 -999 0.042207 0.20217 -1.209513
2009-03-30 06:35:06 51°13.663 2°55.958 -999 0.042001 0.201179 -1.174688
2009-03-30 06:35:10 51°13.663 2°55.958 -999 0.041795 0.200188 -1.174688
2009-03-30 06:35:15 51°13.663 2°55.958 -999 0.041487 0.1987 -1.174688
2009-03-30 06:35:21 51°13.663 2°55.958 -999 0.041281 0.19771 -1.174688
2009-03-30 06:35:26 51°13.663 2°55.958 -999 0.041075 0.19672 -1.209513
2009-03-30 06:35:31 51°13.663 2°55.958 -999 0.041075 0.19672 -1.209513
2009-03-30 06:35:37 51°13.663 2°55.958 -999 0.041281 0.197713 -1.174688
2009-03-30 06:35:42 51°13.663 2°55.958 -999 0.040972 0.196226 -1.209513
2009-03-30 06:35:47 51°13.663 2°55.958 -999 0.041281 0.197719 -1.209513
2009-03-30 06:35:52 51°13.663 2°55.958 -999 0.041795 0.200205 -1.209513
2009-03-30 06:35:57 51°13.663 2°55.958 -999 0.041281 0.197724 -1.209513
2009-03-30 06:36:02 51°13.663 2°55.958 -999 0.041281 0.197724 -1.209513
2009-03-30 06:36:06 51°13.663 2°55.958 -999 0.041589 0.199217 -1.174688
2009-03-30 06:36:11 51°13.663 2°55.958 -999 0.041795 0.200214 -1.209513
2009-03-30 06:36:16 51°13.663 2°55.958 -999 0.041692 0.19972 -1.209513
2009-03-30 06:36:21 51°13.663 2°55.958 -999 0.041487 0.198729 -1.174688
2009-03-30 06:36:26 51°13.663 2°55.958 -999 0.041692 0.199726 -1.174688
2009-03-30 06:36:31 51°13.663 2°55.958 -999 0.041692 0.199726 -1.174688
2009-03-30 06:36:36 51°13.663 2°55.958 -999 0.041795 0.200225 -1.174688
2009-03-30 06:36:41 51°13.663 2°55.958 -999 0.041692 0.199734 -1.174688
2009-03-30 06:36:45 51°13.663 2°55.959 -999 0.041692 0.199737 -1.209513
2009-03-30 06:36:50 51°13.663 2°55.958 -999 0.041898 0.200734 -1.209513
2009-03-30 06:36:55 51°13.663 2°55.958 -999 0.042001 0.201237 -1.209513
2009-03-30 06:37:01 51°13.663 2°55.958 -999 0.042001 0.201237 -1.209513
2009-03-30 06:37:06 51°13.663 2°55.958 -999 0.041898 0.200743 -1.174688
2009-03-30 06:37:10 51°13.663 2°55.958 -999 0.041898 0.200746 -1.174688
2009-03-30 06:37:15 51°13.663 2°55.958 -999 0.041795 0.200251 -1.174688
2009-03-30 06:37:21 51°13.663 2°55.958 -999 0.042001 0.201248 -1.209513
2009-03-30 06:37:26 51°13.663 2°55.958 -999 0.042001 0.201251 -1.209513
2009-03-30 06:37:31 51°13.663 2°55.958 -999 0.042001 0.201251 -1.209513
2009-03-30 06:37:35 51°13.663 2°55.958 -999 0.041589 0.199266 -1.209513
2009-03-30 06:37:40 51°13.663 2°55.958 -999 0.041795 0.200263 -1.209513
2009-03-30 06:37:45 51°13.662 2°55.958 -999 0.041898 0.200763 -1.209513
2009-03-30 06:37:50 51°13.662 2°55.958 -999 0.042001 0.201263 -1.209513
2009-03-30 06:37:55 51°13.662 2°55.958 -999 0.042001 0.201269 -1.209513
2009-03-30 06:38:00 51°13.662 2°55.958 -999 0.042001 0.201269 -1.209513
2009-03-30 06:38:05 51°13.662 2°55.958 -999 0.041589 0.19928 -1.174688
2009-03-30 06:38:10 51°13.662 2°55.958 -999 0.041692 0.199783 -1.209513
2009-03-30 06:38:15 51°13.662 2°55.958 -999 0.042001 0.201277 -1.209513
2009-03-30 06:38:19 51°13.662 2°55.958 -999 0.042516 0.203768 -1.209513
2009-03-30 06:38:25 51°13.662 2°55.958 -999 0.04231 0.202775 -1.209513
2009-03-30 06:38:30 51°13.662 2°55.958 -999 0.04231 0.202775 -1.209513
2009-03-30 06:38:35 51°13.662 2°55.958 -999 0.040766 0.195321 -1.174688
2009-03-30 06:38:40 51°13.662 2°55.958 -999 0.039737 0.19036 -1.209513
2009-03-30 06:38:45 51°13.662 2°55.957 -999 0.040046 0.191845 -1.209513
2009-03-30 06:38:50 51°13.662 2°55.956 -999 0.041795 0.200295 -1.174688
2009-03-30 06:38:55 51°13.663 2°55.953 -999 0.040046 0.191847 -1.209513
2009-03-30 06:39:00 51°13.664 2°55.95 -999 0.040046 0.191847 -1.209513
2009-03-30 06:39:05 51°13.665 2°55.947 -999 0.043442 0.208273 -1.209513
2009-03-30 06:39:10 51°13.666 2°55.944 -999 0.042104 0.201804 -1.174688
2009-03-30 06:39:17 51°13.667 2°55.939 -999 0.040355 0.193352 -1.174688
2009-03-30 06:39:22 51°13.669 2°55.936 -999 0.040869 0.195831 -1.209513
2009-03-30 06:39:27 51°13.67 2°55.932 -999 0.041075 0.196827 -1.174688
2009-03-30 06:39:33 51°13.671 2°55.928 -999 0.041075 0.196827 -1.174688
2009-03-30 06:39:38 51°13.673 2°55.925 -999 0.041075 0.196827 -1.209513
2009-03-30 06:39:43 51°13.674 2°55.921 -999 0.040663 0.194844 -1.209513
2009-03-30 06:39:48 51°13.676 2°55.917 -999 0.040663 0.194847 -1.209513
2009-03-30 06:39:54 51°13.677 2°55.913 -999 0.040457 0.193862 -1.209513
2009-03-30 06:39:58 51°13.678 2°55.91 -999 0.040663 0.194861 -1.209513
2009-03-30 06:40:03 51°13.68 2°55.906 -999 0.040663 0.194861 -1.209513
2009-03-30 06:40:09 51°13.682 2°55.9 -999 0.040663 0.194866 -1.209513
2009-03-30 06:40:14 51°13.683 2°55.896 -999 0.041075 0.196859 -1.209513
2009-03-30 06:40:19 51°13.685 2°55.891 -999 0.040663 0.194875 -1.174688
2009-03-30 06:40:24 51°13.686 2°55.886 -999 0.040663 0.194878 -1.209513
2009-03-30 06:40:29 51°13.688 2°55.88 -999 0.039943 0.191406 -1.209513
2009-03-30 06:40:34 51°13.689 2°55.875 -999 0.039943 0.191406 -1.209513
2009-03-30 06:40:39 51°13.691 2°55.869 -999 0.040972 0.196373 -1.174688
2009-03-30 06:40:44 51°13.692 2°55.862 -999 0.041075 0.19687 -1.174688
2009-03-30 06:40:49 51°13.693 2°55.856 -999 0.040869 0.195874 -1.209513
2009-03-30 06:40:54 51°13.694 2°55.85 -999 0.041075 0.196864 -1.174688
2009-03-30 06:40:59 51°13.695 2°55.843 -999 0.040149 0.19239 -1.174688
2009-03-30 06:41:04 51°13.696 2°55.837 -999 0.040149 0.19239 -1.174688
2009-03-30 06:41:09 51°13.697 2°55.83 -999 0.040663 0.194869 -1.174688
2009-03-30 06:41:14 51°13.698 2°55.824 -999 0.040869 0.195859 -1.209513
2009-03-30 06:41:19 51°13.699 2°55.818 -999 0.041178 0.19735 -1.209513
2009-03-30 06:41:24 51°13.7 2°55.811 -999 2.250106 13.460001 -1.174688
2009-03-30 06:41:29 51°13.701 2°55.805 -999 2.29082 13.800323 -0.93092
2009-03-30 06:41:34 51°13.701 2°55.798 -999 2.29082 13.800323 -0.93092
2009-03-30 06:41:39 51°13.702 2°55.792 -999 3.348908 21.128618 -0.025495
2009-03-30 06:41:44 51°13.702 2°55.785 -999 4.332075 29.614459 3.491735
2009-03-30 06:41:49 51°13.703 2°55.779 -999 4.348424 32.57006 5.790122
2009-03-30 06:41:54 51°13.703 2°55.773 -999 3.991241 30.965635 3.735503
2009-03-30 06:41:59 51°13.703 2°55.768 -999 2.950653 23.257575 6.208011
2009-03-30 06:42:04 51°13.703 2°55.762 -999 2.950653 23.257575 6.208011
2009-03-30 06:42:09 51°13.704 2°55.757 -999 2.922312 23.761631 5.546354
2009-03-30 06:42:14 51°13.704 2°55.753 -999 2.707449 22.336096 3.770327
2009-03-30 06:42:19 51°13.704 2°55.749 -999 2.543237 21.18759 2.690782
2009-03-30 06:42:24 51°13.704 2°55.746 -999 2.457843 20.600524 2.133597
2009-03-30 06:42:29 51°13.704 2°55.744 -999 2.390346 20.13461 1.855004
2009-03-30 06:42:34 51°13.704 2°55.743 -999 2.390346 20.13461 1.855004
2009-03-30 06:42:38 51°13.705 2°55.742 -999 2.347557 19.828701 1.715708
2009-03-30 06:42:43 51°13.705 2°55.741 -999 2.314177 19.595582 1.576412
2009-03-30 06:42:48 51°13.706 2°55.741 -999 2.291648 19.44252 1.576412
2009-03-30 06:42:53 51°13.706 2°55.741 -999 2.286585 19.424795 1.506764
2009-03-30 06:42:58 51°13.707 2°55.742 -999 2.277492 19.38768 1.506764
2009-03-30 06:43:02 51°13.708 2°55.742 -999 2.277492 19.38768 1.506764
2009-03-30 06:43:07 51°13.709 2°55.743 -999 2.274082 19.384343 1.506764
2009-03-30 06:43:12 51°13.71 2°55.745 -999 2.275219 19.419734 1.506764
2009-03-30 06:43:17 51°13.711 2°55.746 -999 2.270053 19.405646 1.541588
2009-03-30 06:43:22 51°13.712 2°55.746 -999 2.265713 19.392232 1.541588
2009-03-30 06:43:26 51°13.713 2°55.746 -999 2.262717 19.388103 1.506764
2009-03-30 06:43:31 51°13.713 2°55.747 -999 2.262717 19.388103 1.506764
2009-03-30 06:43:36 51°13.713 2°55.747 -999 2.263854 19.413348 1.541588
2009-03-30 06:43:41 51°13.713 2°55.746 -999 2.266127 19.442227 1.541588
2009-03-30 06:43:46 51°13.713 2°55.746 -999 2.266851 19.459408 1.541588
2009-03-30 06:43:50 51°13.713 2°55.746 -999 2.267161 19.476037 1.506764
2009-03-30 06:43:55 51°13.712 2°55.745 -999 2.267368 19.486505 1.506764
2009-03-30 06:43:59 51°13.711 2°55.744 -999 2.267368 19.486505 1.506764
2009-03-30 06:44:05 51°13.71 2°55.743 -999 2.269435 19.513534 1.47194
2009-03-30 06:44:10 51°13.709 2°55.742 -999 2.273258 19.547612 1.47194
2009-03-30 06:44:16 51°13.707 2°55.741 -999 2.273568 19.556713 1.506764
2009-03-30 06:44:22 51°13.706 2°55.74 -999 2.274705 19.578372 1.47194
2009-03-30 06:44:27 51°13.706 2°55.74 -999 2.276152 19.599158 1.47194
2009-03-30 06:44:31 51°13.707 2°55.74 -999 2.276152 19.599158 1.47194
2009-03-30 06:44:36 51°13.708 2°55.74 -999 2.278322 19.623911 1.437116
2009-03-30 06:44:41 51°13.711 2°55.74 -999 2.279045 19.63073 1.437116
2009-03-30 06:44:46 51°13.713 2°55.739 -999 2.282972 19.667752 1.437116
2009-03-30 06:44:51 51°13.717 2°55.737 -999 2.284729 19.687195 1.437116
2009-03-30 06:44:56 51°13.72 2°55.735 -999 2.285246 19.70119 1.402292
2009-03-30 06:45:01 51°13.725 2°55.731 -999 2.285246 19.70119 1.402292
2009-03-30 06:45:05 51°13.728 2°55.728 -999 2.285763 19.70991 1.437116
2009-03-30 06:45:10 51°13.734 2°55.723 -999 2.287829 19.733267 1.437116
2009-03-30 06:45:15 51°13.74 2°55.717 -999 2.28907 19.749311 1.506764
2009-03-30 06:45:19 51°13.745 2°55.712 -999 2.297337 19.83127 1.680884
2009-03-30 06:45:25 51°13.754 2°55.704 -999 2.308602 19.951377 1.889828
2009-03-30 06:45:30 51°13.761 2°55.697 -999 2.308602 19.951377 1.889828
2009-03-30 06:45:35 51°13.769 2°55.689 -999 2.319246 20.061428 2.133597
2009-03-30 06:45:40 51°13.777 2°55.681 -999 2.337229 20.251124 2.551485
2009-03-30 06:45:45 51°13.786 2°55.673 -999 2.359864 20.487079 3.039022
2009-03-30 06:45:50 51°13.795 2°55.665 -999 2.389528 20.803031 3.631031
2009-03-30 06:45:55 51°13.805 2°55.657 -999 2.423123 21.172117 4.640929
2009-03-30 06:46:00 51°13.815 2°55.648 -999 2.423123 21.172117 4.640929
2009-03-30 06:46:05 51°13.825 2°55.64 -999 2.475018 21.733479 5.407058
2009-03-30 06:46:10 51°13.835 2°55.632 -999 2.513064 22.174753 6.103539
2009-03-30 06:46:15 51°13.846 2°55.623 -999 2.560523 22.697848 6.660724
2009-03-30 06:46:20 51°13.856 2°55.615 -999 2.601057 23.163624 7.879566
2009-03-30 06:46:25 51°13.867 2°55.606 -999 2.652455 23.751831 9.307352
2009-03-30 06:46:30 51°13.879 2°55.598 -999 2.652455 23.751831 9.307352
2009-03-30 06:46:35 51°13.89 2°55.589 -999 2.701686 24.348046 10.003833
2009-03-30 06:46:41 51°13.903 2°55.578 -999 2.73882 24.807062 10.143129
2009-03-30 06:46:45 51°13.912 2°55.571 -999 2.759094 25.06566 10.177953
2009-03-30 06:46:50 51°13.924 2°55.562 -999 2.771715 25.228997 10.177953
2009-03-30 06:46:55 51°13.935 2°55.554 -999 2.784439 25.375864 10.526194
2009-03-30 06:47:00 51°13.947 2°55.545 -999 2.784439 25.375864 10.526194
2009-03-30 06:47:05 51°13.959 2°55.535 -999 2.797681 25.528886 10.561018
2009-03-30 06:47:10 51°13.97 2°55.527 -999 2.811336 25.684442 10.83961
2009-03-30 06:47:15 51°13.982 2°55.518 -999 2.827165 25.866824 10.978906
2009-03-30 06:47:19 51°13.991 2°55.511 -999 2.840408 26.018904 11.292323
2009-03-30 06:47:25 51°14.005 2°55.5 -999 2.864308 26.290427 11.536091
2009-03-30 06:47:30 51°14.017 2°55.492 -999 2.864308 26.290427 11.536091
2009-03-30 06:47:35 51°14.029 2°55.484 -999 2.883139 26.515548 11.675387
2009-03-30 06:47:40 51°14.041 2°55.476 -999 2.896591 26.67448 11.814684
2009-03-30 06:47:45 51°14.053 2°55.467 -999 2.910043 26.835153 11.884332
2009-03-30 06:47:50 51°14.065 2°55.459 -999 2.92691 27.042096 12.093276
2009-03-30 06:47:55 51°14.077 2°55.451 -999 2.94326 27.235343 12.162924
2009-03-30 06:48:00 51°14.089 2°55.442 -999 2.94326 27.235343 12.162924
2009-03-30 06:48:05 51°14.101 2°55.433 -999 2.954436 27.369865 12.232572
2009-03-30 06:48:10 51°14.112 2°55.423 -999 2.966855 27.523744 12.162924
2009-03-30 06:48:15 51°14.124 2°55.414 -999 2.973168 27.608294 12.337044
2009-03-30 06:48:20 51°14.135 2°55.404 -999 2.980309 27.698622 12.371868
2009-03-30 06:48:25 51°14.147 2°55.394 -999 2.987967 27.794402 12.476341
2009-03-30 06:48:30 51°14.158 2°55.385 -999 2.987967 27.794402 12.476341
2009-03-30 06:48:35 51°14.169 2°55.374 -999 2.996557 27.900626 12.476341
2009-03-30 06:48:39 51°14.178 2°55.367 -999 3.005872 28.022453 12.476341
2009-03-30 06:48:45 51°14.192 2°55.354 -999 3.012289 28.100864 12.580813
2009-03-30 06:48:50 51°14.203 2°55.342 -999 3.017878 28.17448 12.476341
2009-03-30 06:48:55 51°14.213 2°55.33 -999 3.021087 28.221445 12.545989
2009-03-30 06:49:00 51°14.224 2°55.317 -999 3.021087 28.221445 12.545989
2009-03-30 06:49:06 51°14.236 2°55.301 -999 3.025744 28.278286 12.406692
2009-03-30 06:49:10 51°14.244 2°55.29 -999 3.029367 28.327426 12.476341
2009-03-30 06:49:15 51°14.254 2°55.275 -999 3.038579 28.439538 12.545989
2009-03-30 06:49:19 51°14.262 2°55.264 -999 3.044686 28.521181 12.650461
2009-03-30 06:49:25 51°14.273 2°55.246 -999 3.051103 28.603937 12.650461
2009-03-30 06:49:30 51°14.283 2°55.231 -999 3.051103 28.603937 12.650461
2009-03-30 06:49:35 51°14.292 2°55.215 -999 3.05721 28.681353 12.720109
2009-03-30 06:49:40 51°14.302 2°55.199 -999 3.061558 28.742111 12.650461
2009-03-30 06:49:45 51°14.311 2°55.182 -999 3.062903 28.772541 12.580813
2009-03-30 06:49:50 51°14.321 2°55.166 -999 3.061661 28.771637 12.615637
2009-03-30 06:49:55 51°14.331 2°55.149 -999 3.059798 28.764284 12.720109
2009-03-30 06:49:59 51°14.338 2°55.136 -999 3.059798 28.764284 12.720109
2009-03-30 06:50:05 51°14.35 2°55.115 -999 3.059488 28.772308 12.754933
2009-03-30 06:50:10 51°14.359 2°55.098 -999 3.061455 28.800251 12.963877
2009-03-30 06:50:15 51°14.369 2°55.08 -999 3.065699 28.850384 13.06835
2009-03-30 06:50:20 51°14.378 2°55.063 -999 3.073048 28.938892 13.451414
2009-03-30 06:50:25 51°14.387 2°55.045 -999 3.07988 29.017567 13.486238
2009-03-30 06:50:30 51°14.396 2°55.027 -999 3.07988 29.017567 13.486238
2009-03-30 06:50:35 51°14.405 2°55.009 -999 3.086505 29.091871 13.764831
2009-03-30 06:50:39 51°14.412 2°54.994 -999 3.09727 29.212434 14.008599
2009-03-30 06:50:45 51°14.42 2°54.97 -999 3.109899 29.348734 14.113071
2009-03-30 06:50:50 51°14.426 2°54.949 -999 3.125841 29.522833 14.147895
2009-03-30 06:50:55 51°14.43 2°54.928 -999 3.14137 29.688944 14.252367
2009-03-30 06:51:00 51°14.434 2°54.905 -999 3.14137 29.688944 14.252367
2009-03-30 06:51:05 51°14.437 2°54.882 -999 3.156174 29.84842 14.252367
2009-03-30 06:51:10 51°14.438 2°54.858 -999 3.170979 30.006488 14.356839
2009-03-30 06:51:15 51°14.438 2°54.834 -999 3.185474 30.168549 14.391664
2009-03-30 06:51:19 51°14.438 2°54.815 -999 3.19707 30.294867 14.356839
2009-03-30 06:51:25 51°14.435 2°54.786 -999 3.207734 30.408329 14.461312
2009-03-30 06:51:30 51°14.432 2°54.761 -999 3.207734 30.408329 14.461312
2009-03-30 06:51:35 51°14.428 2°54.736 -999 3.214568 30.48244 14.496136
2009-03-30 06:51:40 51°14.423 2°54.712 -999 3.220988 30.551438 14.461312
2009-03-30 06:51:46 51°14.416 2°54.683 -999 3.229064 30.641879 14.426488
2009-03-30 06:51:50 51°14.411 2°54.663 -999 3.235277 30.707969 14.496136
2009-03-30 06:51:55 51°14.404 2°54.639 -999 3.238487 30.741708 14.426488
2009-03-30 06:51:59 51°14.399 2°54.619 -999 3.238487 30.741708 14.426488
2009-03-30 06:52:05 51°14.39 2°54.589 -999 3.242318 30.787628 14.496136
2009-03-30 06:52:10 51°14.383 2°54.565 -999 3.245631 30.828126 14.461312
2009-03-30 06:52:14 51°14.376 2°54.546 -999 3.247081 30.8458 14.356839
2009-03-30 06:52:20 51°14.367 2°54.517 -999 3.249981 30.879541 14.322015
2009-03-30 06:52:25 51°14.359 2°54.492 -999 3.253398 30.920364 14.147895
2009-03-30 06:52:30 51°14.351 2°54.468 -999 3.253398 30.920364 14.147895
2009-03-30 06:52:35 51°14.343 2°54.444 -999 3.256194 30.951419 14.043423
2009-03-30 06:52:40 51°14.335 2°54.419 -999 3.261475 31.010278 13.938951
2009-03-30 06:52:45 51°14.327 2°54.394 -999 3.264478 31.04028 13.730007
2009-03-30 06:52:50 51°14.319 2°54.369 -999 3.269034 31.089906 13.625534
2009-03-30 06:52:54 51°14.313 2°54.35 -999 3.276386 31.172284 13.625534
2009-03-30 06:53:00 51°14.303 2°54.32 -999 3.276386 31.172284 13.625534
2009-03-30 06:53:05 51°14.295 2°54.296 -999 3.283221 31.246797 13.521062
2009-03-30 06:53:10 51°14.288 2°54.272 -999 3.28871 31.305502 13.346942
2009-03-30 06:53:15 51°14.28 2°54.249 -999 3.296269 31.386079 13.06835
2009-03-30 06:53:20 51°14.275 2°54.228 -999 3.304865 31.477621 12.998701
2009-03-30 06:53:25 51°14.272 2°54.207 -999 3.312218 31.554427 12.824581
2009-03-30 06:53:30 51°14.271 2°54.188 -999 3.312218 31.554427 12.824581
2009-03-30 06:53:35 51°14.27 2°54.17 -999 3.321435 31.653438 12.580813
2009-03-30 06:53:40 51°14.271 2°54.153 -999 3.330549 31.748909 12.267396
2009-03-30 06:53:45 51°14.272 2°54.138 -999 3.338316 31.826008 12.1281
2009-03-30 06:53:50 51°14.274 2°54.124 -999 3.343701 31.87375 11.849508
2009-03-30 06:53:54 51°14.277 2°54.113 -999 3.34484 31.863238 11.466443
2009-03-30 06:54:00 51°14.282 2°54.099 -999 3.34484 31.863238 11.466443
2009-03-30 06:54:06 51°14.287 2°54.087 -999 3.348362 31.886238 11.361971
2009-03-30 06:54:10 51°14.292 2°54.08 -999 3.356751 31.970662 11.222675
2009-03-30 06:54:15 51°14.297 2°54.072 -999 3.364105 32.050869 11.153027
2009-03-30 06:54:20 51°14.303 2°54.065 -999 3.36918 32.107029 11.118203
2009-03-30 06:54:25 51°14.31 2°54.059 -999 3.374566 32.170709 11.118203
2009-03-30 06:54:30 51°14.318 2°54.054 -999 3.374566 32.170709 11.118203
2009-03-30 06:54:34 51°14.324 2°54.051 -999 3.376844 32.196495 11.118203
2009-03-30 06:54:40 51°14.334 2°54.047 -999 3.378502 32.220777 11.01373
2009-03-30 06:54:46 51°14.345 2°54.045 -999 3.377777 32.215639 11.01373
2009-03-30 06:54:51 51°14.354 2°54.044 -999 3.373737 32.166159 11.048554
2009-03-30 06:54:55 51°14.362 2°54.043 -999 3.374773 32.179643 10.978906
2009-03-30 06:55:01 51°14.375 2°54.044 -999 3.374773 32.179643 10.978906
2009-03-30 06:55:06 51°14.386 2°54.045 -999 3.375187 32.185712 10.944082
2009-03-30 06:55:11 51°14.397 2°54.047 -999 3.376327 32.204516 10.874434
2009-03-30 06:55:16 51°14.409 2°54.048 -999 3.378398 32.239957 10.874434
2009-03-30 06:55:21 51°14.421 2°54.05 -999 3.379641 32.259883 10.769962
2009-03-30 06:55:26 51°14.434 2°54.051 -999 3.380159 32.267906 10.804786
2009-03-30 06:55:31 51°14.448 2°54.052 -999 3.380159 32.267906 10.804786
2009-03-30 06:55:36 51°14.461 2°54.054 -999 3.381506 32.286402 10.735138
2009-03-30 06:55:41 51°14.475 2°54.055 -999 3.384095 32.322313 10.700314
2009-03-30 06:55:46 51°14.489 2°54.056 -999 3.386271 32.352156 10.66549
2009-03-30 06:55:51 51°14.503 2°54.058 -999 3.385856 32.348613 10.66549
2009-03-30 06:55:56 51°14.518 2°54.06 -999 3.387203 32.364586 10.561018
2009-03-30 06:56:01 51°14.533 2°54.062 -999 3.387203 32.364586 10.561018
2009-03-30 06:56:06 51°14.548 2°54.063 -999 3.387928 32.371423 10.561018
2009-03-30 06:56:11 51°14.564 2°54.065 -999 3.388342 32.375816 10.421721
2009-03-30 06:56:15 51°14.576 2°54.067 -999 3.388653 32.37826 10.421721
2009-03-30 06:56:21 51°14.595 2°54.069 -999 3.390414 32.397779 10.421721
2009-03-30 06:56:26 51°14.61 2°54.071 -999 3.391657 32.410108 10.456545
2009-03-30 06:56:31 51°14.626 2°54.074 -999 3.391657 32.410108 10.456545
2009-03-30 06:56:36 51°14.642 2°54.076 -999 3.392382 32.417796 10.282425
2009-03-30 06:56:41 51°14.658 2°54.078 -999 3.392175 32.412196 10.247601
2009-03-30 06:56:46 51°14.673 2°54.081 -999 3.392796 32.417084 10.317249
2009-03-30 06:56:51 51°14.689 2°54.084 -999 3.393832 32.429768 10.143129
2009-03-30 06:56:56 51°14.705 2°54.088 -999 3.393832 32.428065 10.177953
2009-03-30 06:57:01 51°14.721 2°54.091 -999 3.393832 32.428065 10.177953
2009-03-30 06:57:06 51°14.736 2°54.094 -999 3.394246 32.431607 10.212777
2009-03-30 06:57:11 51°14.752 2°54.098 -999 3.394764 32.435396 10.143129
2009-03-30 06:57:16 51°14.768 2°54.101 -999 3.396007 32.449426 10.177953
2009-03-30 06:57:21 51°14.784 2°54.105 -999 3.397043 32.465521 10.143129
2009-03-30 06:57:26 51°14.799 2°54.108 -999 3.39725 32.472832 10.143129
2009-03-30 06:57:31 51°14.815 2°54.111 -999 3.39725 32.472832 10.143129
2009-03-30 06:57:35 51°14.828 2°54.113 -999 3.397043 32.478309 10.143129
2009-03-30 06:57:41 51°14.847 2°54.117 -999 3.397043 32.48428 10.143129
2009-03-30 06:57:46 51°14.862 2°54.119 -999 3.39694 32.490008 10.143129
2009-03-30 06:57:51 51°14.878 2°54.122 -999 3.39725 32.500991 10.143129
2009-03-30 06:57:56 51°14.894 2°54.124 -999 3.396215 32.500244 10.177953
2009-03-30 06:58:00 51°14.906 2°54.126 -999 3.396215 32.500244 10.177953
2009-03-30 06:58:06 51°14.925 2°54.128 -999 3.395283 32.498033 10.108305
2009-03-30 06:58:10 51°14.938 2°54.131 -999 3.393936 32.488857 10.108305
2009-03-30 06:58:14 51°14.951 2°54.132 -999 3.39259 32.477117 10.073481
2009-03-30 06:58:20 51°14.97 2°54.135 -999 3.3929 32.485544 10.108305
2009-03-30 06:58:26 51°14.989 2°54.137 -999 3.393211 32.493974 10.108305
2009-03-30 06:58:31 51°15.005 2°54.141 -999 3.393211 32.493974 10.108305
2009-03-30 06:58:36 51°15.02 2°54.144 -999 3.392279 32.484923 9.934185
2009-03-30 06:58:41 51°15.036 2°54.146 -999 3.392176 32.488097 10.003833
2009-03-30 06:58:46 51°15.052 2°54.149 -999 3.39259 32.4925 10.003833
2009-03-30 06:58:51 51°15.068 2°54.151 -999 3.393004 32.496903 9.794888
2009-03-30 06:58:56 51°15.083 2°54.153 -999 3.393936 32.5051 9.794888
2009-03-30 06:59:00 51°15.096 2°54.155 -999 3.393936 32.5051 9.794888
2009-03-30 06:59:06 51°15.115 2°54.158 -999 3.395386 32.518801 9.690416
2009-03-30 06:59:11 51°15.131 2°54.16 -999 3.397354 32.538861 9.55112
2009-03-30 06:59:16 51°15.147 2°54.163 -999 3.400151 32.568588 9.446648
2009-03-30 06:59:20 51°15.159 2°54.165 -999 3.402016 32.586693 9.307352
2009-03-30 06:59:25 51°15.175 2°54.168 -999 3.404502 32.611405 9.237704
2009-03-30 06:59:31 51°15.195 2°54.173 -999 3.404502 32.611405 9.237704
2009-03-30 06:59:35 51°15.208 2°54.176 -999 3.406677 32.634531 9.168055
2009-03-30 06:59:40 51°15.225 2°54.18 -999 3.409266 32.664643 9.063583
2009-03-30 06:59:45 51°15.241 2°54.183 -999 3.412063 32.696106 8.959111
2009-03-30 06:59:50 51°15.258 2°54.188 -999 3.414031 32.715318 8.784991
2009-03-30 06:59:55 51°15.274 2°54.191 -999 3.415274 32.724234 8.645695
2009-03-30 07:00:00 51°15.29 2°54.195 -999 3.415274 32.724234 8.645695
2009-03-30 07:00:04 51°15.303 2°54.197 -999 3.417657 32.747851 8.576047
2009-03-30 07:00:10 51°15.323 2°54.202 -999 3.421075 32.787661 8.541223
2009-03-30 07:00:15 51°15.339 2°54.205 -999 3.422111 32.797819 8.541223
2009-03-30 07:00:20 51°15.354 2°54.209 -999 3.423872 32.819145 8.43675
2009-03-30 07:00:25 51°15.37 2°54.212 -999 3.42439 32.826384 8.506398
2009-03-30 07:00:31 51°15.389 2°54.217 -999 3.42439 32.826384 8.506398
2009-03-30 07:00:35 51°15.402 2°54.219 -999 3.423872 32.821736 8.471574
2009-03-30 07:00:40 51°15.418 2°54.223 -999 3.42294 32.814406 8.471574
2009-03-30 07:00:44 51°15.431 2°54.226 -999 3.422525 32.816042 8.576047
2009-03-30 07:00:50 51°15.45 2°54.231 -999 3.421904 32.81893 8.541223
2009-03-30 07:00:55 51°15.467 2°54.234 -999 3.42004 32.804262 8.541223
2009-03-30 07:01:00 51°15.483 2°54.238 -999 3.42004 32.804262 8.541223
2009-03-30 07:01:05 51°15.499 2°54.241 -999 3.419314 32.799997 8.576047
2009-03-30 07:01:11 51°15.518 2°54.246 -999 3.418486 32.792037 8.541223
2009-03-30 07:01:15 51°15.531 2°54.249 -999 3.418279 32.792422 8.506398
2009-03-30 07:01:20 51°15.547 2°54.253 -999 3.418486 32.79722 8.401926
2009-03-30 07:01:26 51°15.566 2°54.257 -999 3.418693 32.801155 8.332278
2009-03-30 07:01:31 51°15.582 2°54.26 -999 3.418693 32.801155 8.332278
2009-03-30 07:01:36 51°15.598 2°54.264 -999 3.419107 32.807297 8.297454
2009-03-30 07:01:40 51°15.611 2°54.267 -999 3.419833 32.816749 8.26263
2009-03-30 07:01:45 51°15.628 2°54.27 -999 3.420454 32.824235 8.192982
2009-03-30 07:01:51 51°15.647 2°54.274 -999 3.421283 32.833063 8.158158
2009-03-30 07:01:55 51°15.66 2°54.277 -999 3.422008 32.839057 8.08851
2009-03-30 07:02:01 51°15.679 2°54.281 -999 3.422008 32.839057 8.08851
2009-03-30 07:02:06 51°15.695 2°54.284 -999 3.422837 32.848751 8.018862
2009-03-30 07:02:11 51°15.711 2°54.288 -999 3.423562 32.854744 7.984038
2009-03-30 07:02:16 51°15.728 2°54.291 -999 3.424908 32.867359 7.949214
2009-03-30 07:02:21 51°15.744 2°54.295 -999 3.42553 32.868785 7.879566
2009-03-30 07:02:26 51°15.76 2°54.298 -999 3.427084 32.886203 7.809917
2009-03-30 07:02:31 51°15.776 2°54.302 -999 3.427084 32.886203 7.809917
2009-03-30 07:02:36 51°15.792 2°54.306 -999 3.428637 32.90189 7.740269
2009-03-30 07:02:41 51°15.808 2°54.309 -999 3.42957 32.910955 7.670621
2009-03-30 07:02:45 51°15.82 2°54.312 -999 3.430088 32.913872 7.670621
2009-03-30 07:02:51 51°15.839 2°54.316 -999 3.430605 32.917656 7.635797
2009-03-30 07:02:56 51°15.854 2°54.319 -999 3.430605 32.915922 7.566149
2009-03-30 07:03:01 51°15.87 2°54.321 -999 3.430605 32.915922 7.566149
2009-03-30 07:03:06 51°15.885 2°54.324 -999 3.430398 32.913715 7.566149
2009-03-30 07:03:11 51°15.899 2°54.327 -999 3.429984 32.909302 7.496501
2009-03-30 07:03:16 51°15.914 2°54.33 -999 3.429259 32.900711 7.426853
2009-03-30 07:03:21 51°15.928 2°54.333 -999 3.428948 32.899134 7.392029
2009-03-30 07:03:26 51°15.943 2°54.336 -999 3.427394 32.88345 7.322381
2009-03-30 07:03:31 51°15.957 2°54.339 -999 3.427394 32.88345 7.322381
2009-03-30 07:03:36 51°15.971 2°54.341 -999 3.42584 32.871229 7.322381
2009-03-30 07:03:41 51°15.985 2°54.343 -999 3.424287 32.859872 7.426853
2009-03-30 07:03:46 51°15.999 2°54.346 -999 3.42294 32.85072 7.357205
2009-03-30 07:03:51 51°16.012 2°54.348 -999 3.420661 32.832498 7.287557
2009-03-30 07:03:56 51°16.026 2°54.35 -999 3.418382 32.811677 7.217908
2009-03-30 07:04:01 51°16.039 2°54.352 -999 3.418382 32.811677 7.217908
2009-03-30 07:04:05 51°16.049 2°54.354 -999 3.416104 32.789125 7.287557
2009-03-30 07:04:11 51°16.065 2°54.356 -999 3.414136 32.772477 7.183084
2009-03-30 07:04:16 51°16.077 2°54.358 -999 3.412478 32.757409 7.078612
2009-03-30 07:04:21 51°16.089 2°54.36 -999 3.410303 32.737686 7.14826
2009-03-30 07:04:26 51°16.099 2°54.361 -999 3.408956 32.72679 7.043788
2009-03-30 07:04:31 51°16.11 2°54.362 -999 3.408956 32.72679 7.043788
2009-03-30 07:04:36 51°16.119 2°54.361 -999 3.407196 32.710616 6.939316
2009-03-30 07:04:41 51°16.128 2°54.359 -999 3.405331 32.693336 6.904492
2009-03-30 07:04:46 51°16.136 2°54.356 -999 3.403363 32.674952 6.97414
2009-03-30 07:04:51 51°16.143 2°54.353 -999 3.401809 32.664429 6.97414
2009-03-30 07:04:56 51°16.15 2°54.349 -999 3.399945 32.648006 6.97414
2009-03-30 07:05:01 51°16.157 2°54.345 -999 3.399945 32.648006 6.97414
2009-03-30 07:05:06 51°16.163 2°54.34 -999 3.398806 32.639309 6.97414
2009-03-30 07:05:11 51°16.168 2°54.335 -999 3.397563 32.63209 6.97414
2009-03-30 07:05:16 51°16.174 2°54.33 -999 3.396113 32.620078 6.904492
2009-03-30 07:05:21 51°16.179 2°54.325 -999 3.395077 32.612481 6.97414
2009-03-30 07:05:26 51°16.184 2°54.32 -999 3.394352 32.605613 6.939316
2009-03-30 07:05:31 51°16.189 2°54.315 -999 3.394352 32.605613 6.939316
2009-03-30 07:05:36 51°16.193 2°54.311 -999 3.394455 32.608439 6.834844
2009-03-30 07:05:41 51°16.197 2°54.306 -999 3.394455 32.610161 6.765196
2009-03-30 07:05:46 51°16.201 2°54.301 -999 3.394663 32.614953 6.765196
2009-03-30 07:05:51 51°16.205 2°54.297 -999 3.394559 32.616432 6.660724
2009-03-30 07:05:56 51°16.209 2°54.292 -999 3.394663 32.618398 6.695548
2009-03-30 07:06:01 51°16.213 2°54.288 -999 3.394663 32.618398 6.695548
2009-03-30 07:06:06 51°16.216 2°54.283 -999 3.39487 32.620607 6.660724
2009-03-30 07:06:11 51°16.219 2°54.279 -999 3.395077 32.622816 6.660724
2009-03-30 07:06:16 51°16.222 2°54.274 -999 3.395284 32.623302 6.695548
2009-03-30 07:06:21 51°16.225 2°54.27 -999 3.395595 32.627477 6.730372
2009-03-30 07:06:26 51°16.228 2°54.266 -999 3.395698 32.62772 6.660724
2009-03-30 07:06:31 51°16.231 2°54.261 -999 3.395698 32.62772 6.660724
2009-03-30 07:06:36 51°16.233 2°54.258 -999 3.395698 32.625997 6.730372
2009-03-30 07:06:41 51°16.236 2°54.254 -999 3.395802 32.627101 6.765196
2009-03-30 07:06:46 51°16.238 2°54.25 -999 3.395698 32.625135 6.765196
2009-03-30 07:06:51 51°16.24 2°54.246 -999 3.395802 32.625378 6.730372
2009-03-30 07:06:56 51°16.241 2°54.242 -999 3.395802 32.624517 6.730372
2009-03-30 07:07:01 51°16.243 2°54.238 -999 3.395802 32.624517 6.730372
2009-03-30 07:07:06 51°16.244 2°54.234 -999 3.395802 32.623655 6.695548
2009-03-30 07:07:11 51°16.245 2°54.23 -999 3.395698 32.62169 6.80002
2009-03-30 07:07:16 51°16.247 2°54.227 -999 3.395491 32.617759 6.80002
2009-03-30 07:07:21 51°16.248 2°54.223 -999 3.395388 32.615794 6.834844
2009-03-30 07:07:26 51°16.249 2°54.219 -999 3.395388 32.615794 6.834844
2009-03-30 07:07:31 51°16.25 2°54.216 -999 3.395388 32.615794 6.834844
2009-03-30 07:07:36 51°16.251 2°54.212 -999 3.395284 32.613828 6.834844
2009-03-30 07:07:40 51°16.252 2°54.209 -999 3.39518 32.611863 6.834844
2009-03-30 07:07:45 51°16.253 2°54.205 -999 3.395284 32.612968 6.765196
2009-03-30 07:07:51 51°16.254 2°54.201 -999 3.39518 32.611003 6.834844
2009-03-30 07:07:56 51°16.255 2°54.198 -999 3.395077 32.609038 6.80002
2009-03-30 07:08:00 51°16.255 2°54.195 -999 3.395077 32.609038 6.80002
2009-03-30 07:08:05 51°16.256 2°54.191 -999 3.395077 32.608177 6.869668
2009-03-30 07:08:11 51°16.257 2°54.186 -999 3.394973 32.607934 6.904492
2009-03-30 07:08:16 51°16.258 2°54.183 -999 3.394766 32.605726 6.939316
2009-03-30 07:08:20 51°16.258 2°54.18 -999 3.394663 32.604622 6.939316
2009-03-30 07:08:25 51°16.259 2°54.177 -999 3.394455 32.601553 7.008964
2009-03-30 07:08:31 51°16.26 2°54.173 -999 3.394455 32.601553 7.008964
2009-03-30 07:08:36 51°16.26 2°54.169 -999 3.394455 32.601553 6.939316
2009-03-30 07:08:40 51°16.261 2°54.167 -999 3.394662 32.601179 6.97414
2009-03-30 07:08:45 51°16.261 2°54.163 -999 3.394455 32.601553 6.939316
2009-03-30 07:08:51 51°16.262 2°54.159 -999 3.394352 32.600449 7.008964
2009-03-30 07:08:55 51°16.262 2°54.156 -999 3.394352 32.598728 6.97414
2009-03-30 07:09:01 51°16.263 2°54.152 -999 3.394352 32.598728 6.97414
2009-03-30 07:09:05 51°16.263 2°54.15 -999 3.394248 32.597624 7.008964
2009-03-30 07:09:11 51°16.263 2°54.146 -999 3.394248 32.597624 7.008964
2009-03-30 07:09:16 51°16.264 2°54.142 -999 3.394248 32.596764 7.043788
2009-03-30 07:09:20 51°16.264 2°54.14 -999 3.394248 32.596764 7.008964
2009-03-30 07:09:26 51°16.265 2°54.136 -999 3.394145 32.59566 7.043788
2009-03-30 07:09:31 51°16.265 2°54.133 -999 3.394145 32.59566 7.043788
2009-03-30 07:09:36 51°16.266 2°54.13 -999 3.394248 32.594183 7.043788
2009-03-30 07:09:41 51°16.266 2°54.127 -999 3.394248 32.594183 7.078612
2009-03-30 07:09:46 51°16.266 2°54.124 -999 3.394352 32.594427 7.078612
2009-03-30 07:09:51 51°16.267 2°54.121 -999 3.394352 32.593567 7.008964
2009-03-30 07:09:56 51°16.267 2°54.117 -999 3.394352 32.594427 7.008964
2009-03-30 07:10:01 51°16.267 2°54.114 -999 3.394352 32.594427 7.008964
2009-03-30 07:10:05 51°16.268 2°54.112 -999 3.394248 32.594183 7.043788
2009-03-30 07:10:11 51°16.268 2°54.108 -999 3.394248 32.595043 7.043788
2009-03-30 07:10:16 51°16.268 2°54.105 -999 3.394352 32.593567 7.008964
2009-03-30 07:10:21 51°16.269 2°54.102 -999 3.394248 32.594183 7.043788
2009-03-30 07:10:25 51°16.269 2°54.1 -999 3.394145 32.593079 6.97414
2009-03-30 07:10:31 51°16.269 2°54.096 -999 3.394145 32.593079 6.97414
2009-03-30 07:10:36 51°16.27 2°54.094 -999 3.394145 32.593079 7.008964
2009-03-30 07:10:41 51°16.27 2°54.091 -999 3.394248 32.594183 6.97414
2009-03-30 07:10:45 51°16.27 2°54.089 -999 3.394041 32.592836 6.939316
2009-03-30 07:10:51 51°16.271 2°54.085 -999 3.394041 32.591115 6.97414
2009-03-30 07:10:56 51°16.271 2°54.082 -999 3.394041 32.591115 6.939316
2009-03-30 07:11:01 51°16.271 2°54.08 -999 3.394041 32.591115 6.939316
2009-03-30 07:11:05 51°16.271 2°54.078 -999 3.394145 32.592219 6.939316
2009-03-30 07:11:11 51°16.271 2°54.074 -999 3.394145 32.592219 6.904492
2009-03-30 07:11:16 51°16.272 2°54.072 -999 3.394041 32.591976 6.939316
2009-03-30 07:11:21 51°16.272 2°54.069 -999 3.394041 32.592836 6.939316
2009-03-30 07:11:25 51°16.272 2°54.067 -999 3.394145 32.5948 6.869668
2009-03-30 07:11:31 51°16.272 2°54.063 -999 3.394145 32.5948 6.869668
2009-03-30 07:11:36 51°16.273 2°54.061 -999 3.394145 32.5948 6.869668
2009-03-30 07:11:41 51°16.273 2°54.058 -999 3.394145 32.5948 6.80002
2009-03-30 07:11:45 51°16.273 2°54.056 -999 3.394145 32.5948 6.765196
2009-03-30 07:11:50 51°16.273 2°54.053 -999 3.393937 32.590872 6.834844
2009-03-30 07:11:55 51°16.274 2°54.051 -999 3.393834 32.589768 6.765196
2009-03-30 07:12:00 51°16.274 2°54.048 -999 3.393834 32.589768 6.765196
2009-03-30 07:12:05 51°16.274 2°54.046 -999 3.393523 32.586457 6.80002
2009-03-30 07:12:09 51°16.274 2°54.044 -999 3.393419 32.586213 6.765196
2009-03-30 07:12:16 51°16.275 2°54.04 -999 3.39373 32.589524 6.765196
2009-03-30 07:12:21 51°16.275 2°54.038 -999 3.393419 32.586213 6.730372
2009-03-30 07:12:25 51°16.275 2°54.036 -999 3.393419 32.585353 6.730372
2009-03-30 07:12:30 51°16.275 2°54.033 -999 3.393419 32.585353 6.730372
2009-03-30 07:12:36 51°16.276 2°54.029 -999 3.393523 32.586457 6.730372
2009-03-30 07:12:41 51°16.276 2°54.026 -999 3.393523 32.587317 6.695548
2009-03-30 07:12:45 51°16.277 2°54.023 -999 3.393316 32.585109 6.660724
2009-03-30 07:12:50 51°16.278 2°54.018 -999 3.393316 32.584249 6.660724
2009-03-30 07:12:56 51°16.278 2°54.012 -999 3.393316 32.58253 6.6259
2009-03-30 07:13:01 51°16.28 2°54.006 -999 3.393316 32.58253 6.6259
2009-03-30 07:13:05 51°16.281 2°54 -999 3.393419 32.583633 6.6259
2009-03-30 07:13:10 51°16.282 2°53.992 -999 3.393419 32.582773 6.591076
2009-03-30 07:13:16 51°16.285 2°53.981 -999 3.393212 32.580566 6.556251
2009-03-30 07:13:21 51°16.287 2°53.97 -999 3.393627 32.585841 6.556251
2009-03-30 07:13:25 51°16.289 2°53.961 -999 3.393834 32.588048 6.556251
2009-03-30 07:13:30 51°16.292 2°53.948 -999 3.393834 32.588048 6.556251
2009-03-30 07:13:36 51°16.296 2°53.931 -999 3.393834 32.588048 6.521427
2009-03-30 07:13:41 51°16.3 2°53.916 -999 3.393523 32.583877 6.486603
2009-03-30 07:13:45 51°16.303 2°53.904 -999 3.393834 32.586328 6.556251
2009-03-30 07:13:50 51°16.307 2°53.887 -999 3.394352 32.591846 6.416955
2009-03-30 07:13:54 51°16.311 2°53.873 -999 3.393109 32.577743 6.382131
2009-03-30 07:14:01 51°16.318 2°53.849 -999 3.393109 32.577743 6.382131
2009-03-30 07:14:05 51°16.323 2°53.834 -999 3.394766 32.595401 6.451779
2009-03-30 07:14:10 51°16.329 2°53.816 -999 3.394455 32.59123 6.382131
2009-03-30 07:14:14 51°16.335 2°53.801 -999 3.394144 32.5862 6.521427
2009-03-30 07:14:20 51°16.344 2°53.779 -999 3.394559 32.590614 6.521427
2009-03-30 07:14:25 51°16.352 2°53.76 -999 3.394041 32.584236 6.591076
2009-03-30 07:14:30 51°16.36 2°53.741 -999 3.394041 32.584236 6.591076
2009-03-30 07:14:36 51°16.371 2°53.72 -999 3.394973 32.593308 6.6259
2009-03-30 07:14:41 51°16.381 2°53.702 -999 3.394973 32.593308 6.765196
2009-03-30 07:14:45 51°16.389 2°53.687 -999 3.395698 32.598453 6.869668
2009-03-30 07:14:50 51°16.399 2°53.669 -999 3.394869 32.586186 7.113436
2009-03-30 07:14:56 51°16.412 2°53.648 -999 3.395387 32.590843 7.217908
2009-03-30 07:15:01 51°16.422 2°53.63 -999 3.395387 32.590843 7.217908
2009-03-30 07:15:05 51°16.431 2°53.616 -999 3.395077 32.586674 7.392029
2009-03-30 07:15:10 51°16.443 2°53.599 -999 3.394559 32.579439 7.496501
2009-03-30 07:15:16 51°16.457 2°53.577 -999 3.394559 32.576861 7.600973
2009-03-30 07:15:21 51°16.469 2°53.559 -999 3.394869 32.579312 7.740269
2009-03-30 07:15:25 51°16.478 2°53.545 -999 3.396009 32.591446 7.949214
2009-03-30 07:15:30 51°16.49 2°53.526 -999 3.396009 32.591446 7.949214
2009-03-30 07:15:36 51°16.505 2°53.505 -999 3.396734 32.598308 8.053686
2009-03-30 07:15:41 51°16.517 2°53.486 -999 3.398287 32.613996 8.297454
2009-03-30 07:15:45 51°16.527 2°53.471 -999 3.398909 32.618034 8.43675
2009-03-30 07:15:50 51°16.539 2°53.451 -999 3.400877 32.638134 8.715343
2009-03-30 07:15:56 51°16.554 2°53.429 -999 3.401809 32.64462 8.715343
2009-03-30 07:16:01 51°16.566 2°53.409 -999 3.401809 32.64462 8.715343
2009-03-30 07:16:05 51°16.576 2°53.394 -999 3.40357 32.660791 8.819815
2009-03-30 07:16:10 51°16.588 2°53.375 -999 3.404917 32.671688 8.854639
2009-03-30 07:16:14 51°16.598 2°53.36 -999 3.40647 32.684788 8.959111
2009-03-30 07:16:21 51°16.616 2°53.333 -999 3.40792 32.695061 9.028759
2009-03-30 07:16:25 51°16.626 2°53.318 -999 3.409578 32.709262 9.098407
2009-03-30 07:16:30 51°16.638 2°53.298 -999 3.409578 32.709262 9.098407
2009-03-30 07:16:34 51°16.648 2°53.283 -999 3.411235 32.72346 9.133231
2009-03-30 07:16:40 51°16.663 2°53.26 -999 3.41196 32.72687 9.133231
2009-03-30 07:16:45 51°16.675 2°53.241 -999 3.413203 32.73493 9.098407
2009-03-30 07:16:50 51°16.688 2°53.222 -999 3.414446 32.742988 9.168055
2009-03-30 07:16:56 51°16.702 2°53.199 -999 3.41631 32.758522 9.098407
2009-03-30 07:17:01 51°16.715 2°53.179 -999 3.41631 32.758522 9.098407
2009-03-30 07:17:05 51°16.725 2°53.164 -999 3.416932 32.759962 9.098407
2009-03-30 07:17:10 51°16.737 2°53.144 -999 3.417243 32.758957 9.098407
2009-03-30 07:17:16 51°16.751 2°53.121 -999 3.419107 32.77621 9.133231
2009-03-30 07:17:21 51°16.763 2°53.101 -999 3.42035 32.787711 9.098407
2009-03-30 07:17:25 51°16.773 2°53.086 -999 3.421386 32.797008 9.098407
2009-03-30 07:17:30 51°16.785 2°53.066 -999 3.421386 32.797008 9.098407
2009-03-30 07:17:36 51°16.799 2°53.042 -999 3.423458 32.817327 9.028759
2009-03-30 07:17:41 51°16.81 2°53.022 -999 3.423665 32.817804 9.028759
2009-03-30 07:17:45 51°16.82 2°53.007 -999 3.424493 32.824895 8.993935
2009-03-30 07:17:50 51°16.832 2°52.987 -999 3.425426 32.833952 8.959111
2009-03-30 07:17:56 51°16.846 2°52.965 -999 3.425426 32.833088 8.854639
2009-03-30 07:18:01 51°16.858 2°52.946 -999 3.425426 32.833088 8.854639
2009-03-30 07:18:05 51°16.868 2°52.931 -999 3.425322 32.831122 8.854639
2009-03-30 07:18:10 51°16.88 2°52.912 -999 3.425011 32.829543 8.680519
2009-03-30 07:18:14 51°16.889 2°52.897 -999 3.426876 32.851113 8.610871
2009-03-30 07:18:21 51°16.905 2°52.87 -999 3.426772 32.849146 8.541223
2009-03-30 07:18:25 51°16.915 2°52.854 -999 3.426254 32.844498 8.506398
2009-03-30 07:18:30 51°16.926 2°52.835 -999 3.426254 32.844498 8.506398
2009-03-30 07:18:34 51°16.936 2°52.819 -999 3.426151 32.845989 8.43675
2009-03-30 07:18:40 51°16.95 2°52.795 -999 3.427705 32.865986 8.43675
2009-03-30 07:18:45 51°16.961 2°52.775 -999 3.427912 32.869922 8.43675
2009-03-30 07:18:50 51°16.973 2°52.755 -999 3.428326 32.874332 8.43675
2009-03-30 07:18:54 51°16.982 2°52.739 -999 3.429259 32.885123 8.541223
2009-03-30 07:19:00 51°16.996 2°52.716 -999 3.429259 32.885123 8.541223
2009-03-30 07:19:05 51°17.008 2°52.696 -999 3.430087 32.895677 8.610871
2009-03-30 07:19:10 51°17.02 2°52.676 -999 3.431434 32.910016 8.645695
2009-03-30 07:19:16 51°17.034 2°52.652 -999 3.431227 32.908676 8.680519
2009-03-30 07:19:21 51°17.046 2°52.632 -999 3.433402 32.932708 8.680519
2009-03-30 07:19:25 51°17.056 2°52.616 -999 3.433817 32.936253 8.715343
2009-03-30 07:19:30 51°17.068 2°52.597 -999 3.433817 32.936253 8.715343
2009-03-30 07:19:36 51°17.082 2°52.574 -999 3.433816 32.934519 8.715343
2009-03-30 07:19:41 51°17.095 2°52.556 -999 3.434334 32.939168 8.819815
2009-03-30 07:19:45 51°17.105 2°52.541 -999 3.434956 32.946654 8.854639
2009-03-30 07:19:50 51°17.117 2°52.523 -999 3.435267 32.949096 8.889463
2009-03-30 07:19:56 51°17.133 2°52.501 -999 3.43537 32.948464 8.924287
2009-03-30 07:20:01 51°17.145 2°52.484 -999 3.43537 32.948464 8.924287
2009-03-30 07:20:05 51°17.155 2°52.469 -999 3.435163 32.94279 8.993935
2009-03-30 07:20:10 51°17.169 2°52.452 -999 3.435888 32.950511 9.028759
2009-03-30 07:20:16 51°17.184 2°52.431 -999 3.436613 32.958232 9.133231
2009-03-30 07:20:21 51°17.197 2°52.413 -999 3.436613 32.958232 9.133231
2009-03-30 07:20:25 51°17.208 2°52.4 -999 3.437131 32.96635 9.063583
2009-03-30 07:20:30 51°17.221 2°52.382 -999 3.437131 32.96635 9.063583
2009-03-30 07:20:34 51°17.232 2°52.369 -999 3.437546 32.972498 9.028759
2009-03-30 07:20:41 51°17.25 2°52.345 -999 3.43796 32.978647 8.993935
2009-03-30 07:20:45 51°17.261 2°52.332 -999 3.438271 32.981957 8.959111
2009-03-30 07:20:50 51°17.275 2°52.315 -999 3.438789 32.989211 8.959111
2009-03-30 07:20:54 51°17.285 2°52.302 -999 3.438892 32.988577 8.819815
2009-03-30 07:21:01 51°17.304 2°52.278 -999 3.438892 32.988577 8.819815
2009-03-30 07:21:05 51°17.315 2°52.265 -999 3.439203 32.991887 8.854639